<?xml version="1.0" encoding="UTF-8" standalone="no" ?>
<gpx xmlns="http://www.topografix.com/GPX/1/1" xmlns:xsi="http://www.w3.org/2001/XMLSchema-instance" xsi:schemaLocation="http://www.topografix.com/GPX/1/1 http://www.topografix.com/GPX/1/1/gpx.xsd" version="1.1" creator="VisuGPX - https://www.visugpx.com">
  <metadata>
    <name>64 - PEDESTRE - Bielle - Pic de Gerbe depuis la cabane de Bourdiou d'Aspeigt</name>
    <desc><![CDATA[Seulement le tracé aller car problème technique GPS. Grosse chaleur]]></desc>
  </metadata>
  <wpt lat="43.01153" lon="-0.46763">
    <ele>1436.805176</ele>
    <name><![CDATA[001]]></name>
    <desc><![CDATA[08-AOU-12 22:33:17]]></desc>
  </wpt>
  <wpt lat="43.00843" lon="-0.45962">
    <ele>1894.869873</ele>
    <name><![CDATA[002]]></name>
    <desc><![CDATA[09-AOU-12 0:35:38]]></desc>
  </wpt>
  <wpt lat="43.01238" lon="-0.46207">
    <ele>-0.11438</ele>
    <name><![CDATA[BoisDesTer]]></name>
    <desc><![CDATA[Bois Des Terres Inconnes]]></desc>
  </wpt>
  <wpt lat="43.01167" lon="-0.46782">
    <ele>1443.053711</ele>
    <name><![CDATA[CabaneD'Ib]]></name>
    <desc><![CDATA[Cabane D'Ibech 1443m]]></desc>
  </wpt>
  <wpt lat="43.0145" lon="-0.45715">
    <ele>-0.11438</ele>
    <name><![CDATA[col]]></name>
    <desc><![CDATA[col 1692m]]></desc>
  </wpt>
  <wpt lat="43.02987" lon="-0.47072">
    <ele>-0.11438</ele>
    <name><![CDATA[Depart]]></name>
    <desc><![CDATA[Départ 842m]]></desc>
  </wpt>
  <wpt lat="43.00842" lon="-0.45964">
    <ele>-0.11438</ele>
    <name><![CDATA[Pic-Gerbe]]></name>
    <desc><![CDATA[Pic de Gerbe 1901m]]></desc>
  </wpt>
  <wpt lat="43.02392" lon="-0.46419">
    <ele>1079.918701</ele>
    <name><![CDATA[Ruines]]></name>
    <desc><![CDATA[Ruines 1080m]]></desc>
  </wpt>
  <trk>
    <name><![CDATA[ACTIVE LOG 002]]></name>
    <trkseg>
      <trkpt lat="43.03117" lon="-0.46861">
        <ele>837.445557</ele>
        <time>2012-08-09T08:05:03Z</time>
      </trkpt>
      <trkpt lat="43.03117" lon="-0.46861">
        <ele>838.406982</ele>
        <time>2012-08-09T08:05:04Z</time>
      </trkpt>
      <trkpt lat="43.03117" lon="-0.46862">
        <ele>838.406982</ele>
        <time>2012-08-09T08:05:05Z</time>
      </trkpt>
      <trkpt lat="43.03117" lon="-0.46863">
        <ele>836.964844</ele>
        <time>2012-08-09T08:05:14Z</time>
      </trkpt>
      <trkpt lat="43.03116" lon="-0.46863">
        <ele>838.887695</ele>
        <time>2012-08-09T08:05:23Z</time>
      </trkpt>
      <trkpt lat="43.03116" lon="-0.46861">
        <ele>838.887695</ele>
        <time>2012-08-09T08:05:45Z</time>
      </trkpt>
      <trkpt lat="43.03116" lon="-0.46863">
        <ele>838.406982</ele>
        <time>2012-08-09T08:05:47Z</time>
      </trkpt>
      <trkpt lat="43.03102" lon="-0.46871">
        <ele>840.810059</ele>
        <time>2012-08-09T08:06:03Z</time>
      </trkpt>
      <trkpt lat="43.03085" lon="-0.46882">
        <ele>841.771484</ele>
        <time>2012-08-09T08:06:22Z</time>
      </trkpt>
      <trkpt lat="43.0307" lon="-0.46895">
        <ele>844.655518</ele>
        <time>2012-08-09T08:06:40Z</time>
      </trkpt>
      <trkpt lat="43.03055" lon="-0.46916">
        <ele>846.097656</ele>
        <time>2012-08-09T08:06:59Z</time>
      </trkpt>
      <trkpt lat="43.03037" lon="-0.46939">
        <ele>847.539551</ele>
        <time>2012-08-09T08:07:20Z</time>
      </trkpt>
      <trkpt lat="43.03027" lon="-0.46961">
        <ele>850.904053</ele>
        <time>2012-08-09T08:07:37Z</time>
      </trkpt>
      <trkpt lat="43.03017" lon="-0.46988">
        <ele>851.384766</ele>
        <time>2012-08-09T08:07:56Z</time>
      </trkpt>
      <trkpt lat="43.03008" lon="-0.47006">
        <ele>853.307373</ele>
        <time>2012-08-09T08:08:09Z</time>
      </trkpt>
      <trkpt lat="43.03001" lon="-0.47022">
        <ele>855.710693</ele>
        <time>2012-08-09T08:08:22Z</time>
      </trkpt>
      <trkpt lat="43.02998" lon="-0.47032">
        <ele>856.671875</ele>
        <time>2012-08-09T08:08:28Z</time>
      </trkpt>
      <trkpt lat="43.02996" lon="-0.47035">
        <ele>857.152588</ele>
        <time>2012-08-09T08:08:30Z</time>
      </trkpt>
      <trkpt lat="43.02992" lon="-0.47052">
        <ele>860.036621</ele>
        <time>2012-08-09T08:08:43Z</time>
      </trkpt>
      <trkpt lat="43.02991" lon="-0.47068">
        <ele>860.517334</ele>
        <time>2012-08-09T08:08:56Z</time>
      </trkpt>
      <trkpt lat="43.02985" lon="-0.47095">
        <ele>862.920654</ele>
        <time>2012-08-09T08:09:13Z</time>
      </trkpt>
      <trkpt lat="43.02982" lon="-0.47115">
        <ele>865.804688</ele>
        <time>2012-08-09T08:09:27Z</time>
      </trkpt>
      <trkpt lat="43.02981" lon="-0.47137">
        <ele>868.688477</ele>
        <time>2012-08-09T08:09:42Z</time>
      </trkpt>
      <trkpt lat="43.02978" lon="-0.47153">
        <ele>871.572266</ele>
        <time>2012-08-09T08:09:55Z</time>
      </trkpt>
      <trkpt lat="43.02977" lon="-0.47156">
        <ele>871.572266</ele>
        <time>2012-08-09T08:09:58Z</time>
      </trkpt>
      <trkpt lat="43.02964" lon="-0.47157">
        <ele>873.975586</ele>
        <time>2012-08-09T08:10:14Z</time>
      </trkpt>
      <trkpt lat="43.02954" lon="-0.47156">
        <ele>876.859863</ele>
        <time>2012-08-09T08:10:24Z</time>
      </trkpt>
      <trkpt lat="43.02937" lon="-0.4715">
        <ele>878.301758</ele>
        <time>2012-08-09T08:10:40Z</time>
      </trkpt>
      <trkpt lat="43.02931" lon="-0.47148">
        <ele>880.224365</ele>
        <time>2012-08-09T08:10:46Z</time>
      </trkpt>
      <trkpt lat="43.02919" lon="-0.47125">
        <ele>883.108154</ele>
        <time>2012-08-09T08:11:05Z</time>
      </trkpt>
      <trkpt lat="43.02911" lon="-0.47109">
        <ele>886.4729</ele>
        <time>2012-08-09T08:11:18Z</time>
      </trkpt>
      <trkpt lat="43.02906" lon="-0.47093">
        <ele>888.876221</ele>
        <time>2012-08-09T08:11:33Z</time>
      </trkpt>
      <trkpt lat="43.029" lon="-0.47082">
        <ele>891.279297</ele>
        <time>2012-08-09T08:11:45Z</time>
      </trkpt>
      <trkpt lat="43.02898" lon="-0.47075">
        <ele>892.72168</ele>
        <time>2012-08-09T08:11:52Z</time>
      </trkpt>
      <trkpt lat="43.02894" lon="-0.47054">
        <ele>894.163574</ele>
        <time>2012-08-09T08:12:09Z</time>
      </trkpt>
      <trkpt lat="43.02894" lon="-0.47028">
        <ele>895.605469</ele>
        <time>2012-08-09T08:12:26Z</time>
      </trkpt>
      <trkpt lat="43.02894" lon="-0.47026">
        <ele>896.566895</ele>
        <time>2012-08-09T08:12:27Z</time>
      </trkpt>
      <trkpt lat="43.02895" lon="-0.47023">
        <ele>896.086182</ele>
        <time>2012-08-09T08:12:29Z</time>
      </trkpt>
      <trkpt lat="43.02902" lon="-0.47">
        <ele>898.489258</ele>
        <time>2012-08-09T08:12:45Z</time>
      </trkpt>
      <trkpt lat="43.02904" lon="-0.46987">
        <ele>899.931396</ele>
        <time>2012-08-09T08:12:54Z</time>
      </trkpt>
      <trkpt lat="43.02908" lon="-0.46963">
        <ele>902.815186</ele>
        <time>2012-08-09T08:13:10Z</time>
      </trkpt>
      <trkpt lat="43.02907" lon="-0.4694">
        <ele>904.737793</ele>
        <time>2012-08-09T08:13:25Z</time>
      </trkpt>
      <trkpt lat="43.02907" lon="-0.46937">
        <ele>904.737793</ele>
        <time>2012-08-09T08:13:27Z</time>
      </trkpt>
      <trkpt lat="43.02906" lon="-0.4693">
        <ele>905.699219</ele>
        <time>2012-08-09T08:13:31Z</time>
      </trkpt>
      <trkpt lat="43.02906" lon="-0.46906">
        <ele>907.621826</ele>
        <time>2012-08-09T08:13:47Z</time>
      </trkpt>
      <trkpt lat="43.02902" lon="-0.46885">
        <ele>910.505859</ele>
        <time>2012-08-09T08:14:01Z</time>
      </trkpt>
      <trkpt lat="43.02897" lon="-0.46865">
        <ele>913.389893</ele>
        <time>2012-08-09T08:14:19Z</time>
      </trkpt>
      <trkpt lat="43.02893" lon="-0.46842">
        <ele>915.3125</ele>
        <time>2012-08-09T08:14:35Z</time>
      </trkpt>
      <trkpt lat="43.0289" lon="-0.46822">
        <ele>918.196289</ele>
        <time>2012-08-09T08:14:50Z</time>
      </trkpt>
      <trkpt lat="43.02891" lon="-0.46814">
        <ele>918.677002</ele>
        <time>2012-08-09T08:14:57Z</time>
      </trkpt>
      <trkpt lat="43.02892" lon="-0.4681">
        <ele>918.196289</ele>
        <time>2012-08-09T08:15:00Z</time>
      </trkpt>
      <trkpt lat="43.0289" lon="-0.46789">
        <ele>921.080322</ele>
        <time>2012-08-09T08:15:14Z</time>
      </trkpt>
      <trkpt lat="43.02886" lon="-0.46756">
        <ele>923.483643</ele>
        <time>2012-08-09T08:15:33Z</time>
      </trkpt>
      <trkpt lat="43.02876" lon="-0.46739">
        <ele>926.848389</ele>
        <time>2012-08-09T08:15:48Z</time>
      </trkpt>
      <trkpt lat="43.02875" lon="-0.46738">
        <ele>927.329102</ele>
        <time>2012-08-09T08:15:49Z</time>
      </trkpt>
      <trkpt lat="43.02863" lon="-0.46722">
        <ele>929.251465</ele>
        <time>2012-08-09T08:16:06Z</time>
      </trkpt>
      <trkpt lat="43.0285" lon="-0.46699">
        <ele>931.174316</ele>
        <time>2012-08-09T08:16:26Z</time>
      </trkpt>
      <trkpt lat="43.02844" lon="-0.46683">
        <ele>933.577393</ele>
        <time>2012-08-09T08:16:41Z</time>
      </trkpt>
      <trkpt lat="43.0284" lon="-0.46664">
        <ele>934.538818</ele>
        <time>2012-08-09T08:16:53Z</time>
      </trkpt>
      <trkpt lat="43.02829" lon="-0.46645">
        <ele>937.90332</ele>
        <time>2012-08-09T08:17:11Z</time>
      </trkpt>
      <trkpt lat="43.02819" lon="-0.46634">
        <ele>941.268066</ele>
        <time>2012-08-09T08:17:24Z</time>
      </trkpt>
      <trkpt lat="43.02803" lon="-0.46613">
        <ele>944.1521</ele>
        <time>2012-08-09T08:17:44Z</time>
      </trkpt>
      <trkpt lat="43.0279" lon="-0.466">
        <ele>947.516602</ele>
        <time>2012-08-09T08:17:58Z</time>
      </trkpt>
      <trkpt lat="43.02781" lon="-0.46597">
        <ele>948.958496</ele>
        <time>2012-08-09T08:18:08Z</time>
      </trkpt>
      <trkpt lat="43.0276" lon="-0.46592">
        <ele>951.361816</ele>
        <time>2012-08-09T08:18:29Z</time>
      </trkpt>
      <trkpt lat="43.02732" lon="-0.46582">
        <ele>954.24585</ele>
        <time>2012-08-09T08:18:54Z</time>
      </trkpt>
      <trkpt lat="43.02715" lon="-0.46575">
        <ele>955.687744</ele>
        <time>2012-08-09T08:19:10Z</time>
      </trkpt>
      <trkpt lat="43.02694" lon="-0.46564">
        <ele>956.64917</ele>
        <time>2012-08-09T08:19:29Z</time>
      </trkpt>
      <trkpt lat="43.0267" lon="-0.46554">
        <ele>957.610596</ele>
        <time>2012-08-09T08:19:50Z</time>
      </trkpt>
      <trkpt lat="43.02642" lon="-0.46542">
        <ele>959.05249</ele>
        <time>2012-08-09T08:20:15Z</time>
      </trkpt>
      <trkpt lat="43.02621" lon="-0.46533">
        <ele>959.05249</ele>
        <time>2012-08-09T08:20:34Z</time>
      </trkpt>
      <trkpt lat="43.02608" lon="-0.46526">
        <ele>959.05249</ele>
        <time>2012-08-09T08:20:45Z</time>
      </trkpt>
      <trkpt lat="43.02586" lon="-0.46521">
        <ele>959.05249</ele>
        <time>2012-08-09T08:21:01Z</time>
      </trkpt>
      <trkpt lat="43.02581" lon="-0.46515">
        <ele>959.533203</ele>
        <time>2012-08-09T08:21:07Z</time>
      </trkpt>
      <trkpt lat="43.02578" lon="-0.46513">
        <ele>960.013672</ele>
        <time>2012-08-09T08:21:11Z</time>
      </trkpt>
      <trkpt lat="43.02577" lon="-0.46509">
        <ele>960.975098</ele>
        <time>2012-08-09T08:21:15Z</time>
      </trkpt>
      <trkpt lat="43.02573" lon="-0.46507">
        <ele>960.975098</ele>
        <time>2012-08-09T08:21:19Z</time>
      </trkpt>
      <trkpt lat="43.02563" lon="-0.46487">
        <ele>961.936523</ele>
        <time>2012-08-09T08:21:33Z</time>
      </trkpt>
      <trkpt lat="43.02561" lon="-0.46471">
        <ele>962.416992</ele>
        <time>2012-08-09T08:21:45Z</time>
      </trkpt>
      <trkpt lat="43.02562" lon="-0.46471">
        <ele>962.416992</ele>
        <time>2012-08-09T08:21:48Z</time>
      </trkpt>
      <trkpt lat="43.0257" lon="-0.46472">
        <ele>963.378418</ele>
        <time>2012-08-09T08:22:03Z</time>
      </trkpt>
      <trkpt lat="43.02574" lon="-0.46468">
        <ele>963.858887</ele>
        <time>2012-08-09T08:22:15Z</time>
      </trkpt>
      <trkpt lat="43.02599" lon="-0.46467">
        <ele>964.3396</ele>
        <time>2012-08-09T08:22:38Z</time>
      </trkpt>
      <trkpt lat="43.02619" lon="-0.46455">
        <ele>967.704102</ele>
        <time>2012-08-09T08:22:56Z</time>
      </trkpt>
      <trkpt lat="43.02634" lon="-0.46446">
        <ele>970.107422</ele>
        <time>2012-08-09T08:23:13Z</time>
      </trkpt>
      <trkpt lat="43.02646" lon="-0.46441">
        <ele>972.510986</ele>
        <time>2012-08-09T08:23:26Z</time>
      </trkpt>
      <trkpt lat="43.02648" lon="-0.46439">
        <ele>972.991699</ele>
        <time>2012-08-09T08:23:29Z</time>
      </trkpt>
      <trkpt lat="43.0265" lon="-0.4643">
        <ele>973.952881</ele>
        <time>2012-08-09T08:23:34Z</time>
      </trkpt>
      <trkpt lat="43.02646" lon="-0.46422">
        <ele>975.394775</ele>
        <time>2012-08-09T08:23:39Z</time>
      </trkpt>
      <trkpt lat="43.02643" lon="-0.46421">
        <ele>975.394775</ele>
        <time>2012-08-09T08:23:41Z</time>
      </trkpt>
      <trkpt lat="43.02628" lon="-0.46426">
        <ele>977.317627</ele>
        <time>2012-08-09T08:23:55Z</time>
      </trkpt>
      <trkpt lat="43.02618" lon="-0.46431">
        <ele>978.278809</ele>
        <time>2012-08-09T08:24:05Z</time>
      </trkpt>
      <trkpt lat="43.02608" lon="-0.4643">
        <ele>980.201416</ele>
        <time>2012-08-09T08:24:17Z</time>
      </trkpt>
      <trkpt lat="43.02595" lon="-0.46428">
        <ele>981.643311</ele>
        <time>2012-08-09T08:24:33Z</time>
      </trkpt>
      <trkpt lat="43.02584" lon="-0.46428">
        <ele>983.085205</ele>
        <time>2012-08-09T08:24:43Z</time>
      </trkpt>
      <trkpt lat="43.02571" lon="-0.46421">
        <ele>986.449951</ele>
        <time>2012-08-09T08:24:57Z</time>
      </trkpt>
      <trkpt lat="43.02563" lon="-0.46419">
        <ele>987.411133</ele>
        <time>2012-08-09T08:25:05Z</time>
      </trkpt>
      <trkpt lat="43.02555" lon="-0.46418">
        <ele>988.853516</ele>
        <time>2012-08-09T08:25:14Z</time>
      </trkpt>
      <trkpt lat="43.02541" lon="-0.46413">
        <ele>991.256592</ele>
        <time>2012-08-09T08:25:30Z</time>
      </trkpt>
      <trkpt lat="43.02533" lon="-0.4641">
        <ele>992.69873</ele>
        <time>2012-08-09T08:25:41Z</time>
      </trkpt>
      <trkpt lat="43.0253" lon="-0.46409">
        <ele>994.140625</ele>
        <time>2012-08-09T08:25:46Z</time>
      </trkpt>
      <trkpt lat="43.02521" lon="-0.46405">
        <ele>994.140625</ele>
        <time>2012-08-09T08:25:55Z</time>
      </trkpt>
      <trkpt lat="43.02507" lon="-0.46402">
        <ele>995.58252</ele>
        <time>2012-08-09T08:26:08Z</time>
      </trkpt>
      <trkpt lat="43.02499" lon="-0.46413">
        <ele>998.466309</ele>
        <time>2012-08-09T08:26:24Z</time>
      </trkpt>
      <trkpt lat="43.025" lon="-0.46433">
        <ele>1000.869629</ele>
        <time>2012-08-09T08:26:37Z</time>
      </trkpt>
      <trkpt lat="43.02501" lon="-0.46446">
        <ele>1002.792236</ele>
        <time>2012-08-09T08:26:49Z</time>
      </trkpt>
      <trkpt lat="43.02499" lon="-0.46451">
        <ele>1003.272949</ele>
        <time>2012-08-09T08:26:56Z</time>
      </trkpt>
      <trkpt lat="43.02492" lon="-0.46485">
        <ele>1005.676514</ele>
        <time>2012-08-09T08:27:09Z</time>
      </trkpt>
      <trkpt lat="43.02488" lon="-0.46484">
        <ele>1007.599121</ele>
        <time>2012-08-09T08:27:23Z</time>
      </trkpt>
      <trkpt lat="43.02492" lon="-0.46465">
        <ele>1010.48291</ele>
        <time>2012-08-09T08:27:34Z</time>
      </trkpt>
      <trkpt lat="43.02493" lon="-0.46453">
        <ele>1012.88623</ele>
        <time>2012-08-09T08:27:45Z</time>
      </trkpt>
      <trkpt lat="43.02492" lon="-0.46438">
        <ele>1015.289551</ele>
        <time>2012-08-09T08:27:55Z</time>
      </trkpt>
      <trkpt lat="43.02485" lon="-0.46418">
        <ele>1017.212158</ele>
        <time>2012-08-09T08:28:11Z</time>
      </trkpt>
      <trkpt lat="43.0248" lon="-0.46411">
        <ele>1019.615479</ele>
        <time>2012-08-09T08:28:19Z</time>
      </trkpt>
      <trkpt lat="43.02475" lon="-0.46416">
        <ele>1020.096191</ele>
        <time>2012-08-09T08:28:29Z</time>
      </trkpt>
      <trkpt lat="43.02473" lon="-0.46439">
        <ele>1021.538086</ele>
        <time>2012-08-09T08:28:43Z</time>
      </trkpt>
      <trkpt lat="43.02467" lon="-0.4647">
        <ele>1024.422119</ele>
        <time>2012-08-09T08:29:04Z</time>
      </trkpt>
      <trkpt lat="43.02467" lon="-0.46474">
        <ele>1024.902832</ele>
        <time>2012-08-09T08:29:09Z</time>
      </trkpt>
      <trkpt lat="43.02466" lon="-0.46471">
        <ele>1026.344727</ele>
        <time>2012-08-09T08:29:17Z</time>
      </trkpt>
      <trkpt lat="43.02461" lon="-0.46465">
        <ele>1029.228516</ele>
        <time>2012-08-09T08:29:31Z</time>
      </trkpt>
      <trkpt lat="43.02462" lon="-0.46452">
        <ele>1030.189941</ele>
        <time>2012-08-09T08:29:43Z</time>
      </trkpt>
      <trkpt lat="43.02462" lon="-0.4644">
        <ele>1033.07373</ele>
        <time>2012-08-09T08:29:53Z</time>
      </trkpt>
      <trkpt lat="43.02467" lon="-0.46431">
        <ele>1034.515869</ele>
        <time>2012-08-09T08:30:06Z</time>
      </trkpt>
      <trkpt lat="43.02464" lon="-0.46427">
        <ele>1036.438721</ele>
        <time>2012-08-09T08:30:17Z</time>
      </trkpt>
      <trkpt lat="43.02461" lon="-0.4641">
        <ele>1037.880615</ele>
        <time>2012-08-09T08:30:29Z</time>
      </trkpt>
      <trkpt lat="43.02459" lon="-0.46397">
        <ele>1039.803223</ele>
        <time>2012-08-09T08:30:38Z</time>
      </trkpt>
      <trkpt lat="43.02458" lon="-0.46394">
        <ele>1039.32251</ele>
        <time>2012-08-09T08:30:40Z</time>
      </trkpt>
      <trkpt lat="43.02448" lon="-0.46368">
        <ele>1041.245117</ele>
        <time>2012-08-09T08:30:56Z</time>
      </trkpt>
      <trkpt lat="43.02441" lon="-0.4635">
        <ele>1042.206543</ele>
        <time>2012-08-09T08:31:07Z</time>
      </trkpt>
      <trkpt lat="43.02447" lon="-0.46334">
        <ele>1043.648438</ele>
        <time>2012-08-09T08:31:19Z</time>
      </trkpt>
      <trkpt lat="43.0245" lon="-0.46333">
        <ele>1043.648438</ele>
        <time>2012-08-09T08:31:24Z</time>
      </trkpt>
      <trkpt lat="43.02458" lon="-0.46333">
        <ele>1044.12915</ele>
        <time>2012-08-09T08:31:34Z</time>
      </trkpt>
      <trkpt lat="43.0247" lon="-0.46328">
        <ele>1047.012939</ele>
        <time>2012-08-09T08:31:48Z</time>
      </trkpt>
      <trkpt lat="43.02481" lon="-0.46322">
        <ele>1048.454834</ele>
        <time>2012-08-09T08:31:59Z</time>
      </trkpt>
      <trkpt lat="43.02484" lon="-0.46321">
        <ele>1048.935547</ele>
        <time>2012-08-09T08:32:02Z</time>
      </trkpt>
      <trkpt lat="43.02496" lon="-0.46322">
        <ele>1050.377686</ele>
        <time>2012-08-09T08:32:14Z</time>
      </trkpt>
      <trkpt lat="43.02513" lon="-0.4632">
        <ele>1051.81958</ele>
        <time>2012-08-09T08:32:30Z</time>
      </trkpt>
      <trkpt lat="43.02523" lon="-0.46315">
        <ele>1055.184326</ele>
        <time>2012-08-09T08:32:41Z</time>
      </trkpt>
      <trkpt lat="43.02525" lon="-0.46306">
        <ele>1055.665039</ele>
        <time>2012-08-09T08:32:50Z</time>
      </trkpt>
      <trkpt lat="43.02511" lon="-0.46299">
        <ele>1057.106934</ele>
        <time>2012-08-09T08:33:04Z</time>
      </trkpt>
      <trkpt lat="43.02491" lon="-0.46293">
        <ele>1058.068359</ele>
        <time>2012-08-09T08:33:21Z</time>
      </trkpt>
      <trkpt lat="43.02474" lon="-0.4629">
        <ele>1059.990723</ele>
        <time>2012-08-09T08:33:36Z</time>
      </trkpt>
      <trkpt lat="43.0245" lon="-0.4629">
        <ele>1062.394043</ele>
        <time>2012-08-09T08:33:58Z</time>
      </trkpt>
      <trkpt lat="43.02432" lon="-0.46283">
        <ele>1065.278076</ele>
        <time>2012-08-09T08:34:15Z</time>
      </trkpt>
      <trkpt lat="43.02417" lon="-0.46288">
        <ele>1066.719971</ele>
        <time>2012-08-09T08:34:30Z</time>
      </trkpt>
      <trkpt lat="43.0241" lon="-0.46305">
        <ele>1068.162109</ele>
        <time>2012-08-09T08:34:47Z</time>
      </trkpt>
      <trkpt lat="43.02399" lon="-0.46319">
        <ele>1071.526611</ele>
        <time>2012-08-09T08:35:05Z</time>
      </trkpt>
      <trkpt lat="43.02385" lon="-0.46327">
        <ele>1072.488037</ele>
        <time>2012-08-09T08:35:23Z</time>
      </trkpt>
      <trkpt lat="43.02374" lon="-0.46329">
        <ele>1074.891357</ele>
        <time>2012-08-09T08:35:38Z</time>
      </trkpt>
      <trkpt lat="43.02372" lon="-0.46329">
        <ele>1074.410645</ele>
        <time>2012-08-09T08:35:44Z</time>
      </trkpt>
      <trkpt lat="43.02356" lon="-0.46324">
        <ele>1078.255859</ele>
        <time>2012-08-09T08:36:02Z</time>
      </trkpt>
      <trkpt lat="43.02357" lon="-0.46322">
        <ele>1078.255859</ele>
        <time>2012-08-09T08:36:06Z</time>
      </trkpt>
      <trkpt lat="43.02378" lon="-0.46311">
        <ele>1082.101074</ele>
        <time>2012-08-09T08:36:27Z</time>
      </trkpt>
      <trkpt lat="43.02391" lon="-0.46303">
        <ele>1084.504639</ele>
        <time>2012-08-09T08:36:41Z</time>
      </trkpt>
      <trkpt lat="43.02391" lon="-0.46299">
        <ele>1084.504639</ele>
        <time>2012-08-09T08:36:44Z</time>
      </trkpt>
      <trkpt lat="43.0238" lon="-0.46288">
        <ele>1085.946533</ele>
        <time>2012-08-09T08:36:57Z</time>
      </trkpt>
      <trkpt lat="43.02364" lon="-0.4629">
        <ele>1088.349854</ele>
        <time>2012-08-09T08:37:15Z</time>
      </trkpt>
      <trkpt lat="43.02364" lon="-0.4629">
        <ele>1087.869141</ele>
        <time>2012-08-09T08:37:16Z</time>
      </trkpt>
      <trkpt lat="43.02352" lon="-0.46291">
        <ele>1089.791748</ele>
        <time>2012-08-09T08:37:29Z</time>
      </trkpt>
      <trkpt lat="43.0234" lon="-0.46291">
        <ele>1092.195068</ele>
        <time>2012-08-09T08:37:43Z</time>
      </trkpt>
      <trkpt lat="43.0233" lon="-0.46289">
        <ele>1095.55957</ele>
        <time>2012-08-09T08:37:55Z</time>
      </trkpt>
      <trkpt lat="43.02329" lon="-0.46289">
        <ele>1095.55957</ele>
        <time>2012-08-09T08:37:56Z</time>
      </trkpt>
      <trkpt lat="43.02323" lon="-0.46287">
        <ele>1097.001465</ele>
        <time>2012-08-09T08:38:03Z</time>
      </trkpt>
      <trkpt lat="43.02317" lon="-0.46284">
        <ele>1097.482178</ele>
        <time>2012-08-09T08:38:09Z</time>
      </trkpt>
      <trkpt lat="43.02309" lon="-0.46273">
        <ele>1098.443359</ele>
        <time>2012-08-09T08:38:22Z</time>
      </trkpt>
      <trkpt lat="43.02308" lon="-0.4627">
        <ele>1098.924072</ele>
        <time>2012-08-09T08:38:24Z</time>
      </trkpt>
      <trkpt lat="43.02307" lon="-0.46247">
        <ele>1099.404785</ele>
        <time>2012-08-09T08:38:37Z</time>
      </trkpt>
      <trkpt lat="43.02306" lon="-0.46244">
        <ele>1099.404785</ele>
        <time>2012-08-09T08:38:39Z</time>
      </trkpt>
      <trkpt lat="43.02297" lon="-0.46237">
        <ele>1100.846924</ele>
        <time>2012-08-09T08:38:49Z</time>
      </trkpt>
      <trkpt lat="43.02292" lon="-0.46239">
        <ele>1101.327637</ele>
        <time>2012-08-09T08:38:53Z</time>
      </trkpt>
      <trkpt lat="43.02285" lon="-0.46259">
        <ele>1102.769531</ele>
        <time>2012-08-09T08:39:05Z</time>
      </trkpt>
      <trkpt lat="43.02275" lon="-0.46275">
        <ele>1103.730957</ele>
        <time>2012-08-09T08:39:23Z</time>
      </trkpt>
      <trkpt lat="43.02273" lon="-0.46279">
        <ele>1104.21167</ele>
        <time>2012-08-09T08:39:27Z</time>
      </trkpt>
      <trkpt lat="43.02266" lon="-0.46287">
        <ele>1104.692139</ele>
        <time>2012-08-09T08:39:36Z</time>
      </trkpt>
      <trkpt lat="43.02252" lon="-0.46291">
        <ele>1106.134033</ele>
        <time>2012-08-09T08:39:49Z</time>
      </trkpt>
      <trkpt lat="43.02235" lon="-0.46299">
        <ele>1108.537354</ele>
        <time>2012-08-09T08:40:06Z</time>
      </trkpt>
      <trkpt lat="43.0222" lon="-0.46307">
        <ele>1109.979248</ele>
        <time>2012-08-09T08:40:21Z</time>
      </trkpt>
      <trkpt lat="43.02213" lon="-0.46315">
        <ele>1110.940674</ele>
        <time>2012-08-09T08:40:30Z</time>
      </trkpt>
      <trkpt lat="43.02192" lon="-0.46333">
        <ele>1113.343994</ele>
        <time>2012-08-09T08:40:51Z</time>
      </trkpt>
      <trkpt lat="43.02188" lon="-0.46334">
        <ele>1113.824463</ele>
        <time>2012-08-09T08:41:04Z</time>
      </trkpt>
      <trkpt lat="43.0218" lon="-0.46351">
        <ele>1115.266602</ele>
        <time>2012-08-09T08:41:50Z</time>
      </trkpt>
      <trkpt lat="43.0217" lon="-0.46352">
        <ele>1116.228027</ele>
        <time>2012-08-09T08:42:00Z</time>
      </trkpt>
      <trkpt lat="43.02161" lon="-0.46353">
        <ele>1117.189453</ele>
        <time>2012-08-09T08:42:09Z</time>
      </trkpt>
      <trkpt lat="43.02149" lon="-0.46354">
        <ele>1118.150635</ele>
        <time>2012-08-09T08:42:20Z</time>
      </trkpt>
      <trkpt lat="43.02129" lon="-0.46353">
        <ele>1119.112061</ele>
        <time>2012-08-09T08:42:37Z</time>
      </trkpt>
      <trkpt lat="43.02109" lon="-0.46367">
        <ele>1119.112061</ele>
        <time>2012-08-09T08:42:57Z</time>
      </trkpt>
      <trkpt lat="43.02102" lon="-0.46388">
        <ele>1119.592773</ele>
        <time>2012-08-09T08:43:16Z</time>
      </trkpt>
      <trkpt lat="43.02111" lon="-0.46399">
        <ele>1121.034668</ele>
        <time>2012-08-09T08:43:29Z</time>
      </trkpt>
      <trkpt lat="43.02116" lon="-0.46409">
        <ele>1121.99585</ele>
        <time>2012-08-09T08:43:39Z</time>
      </trkpt>
      <trkpt lat="43.02125" lon="-0.46411">
        <ele>1123.918457</ele>
        <time>2012-08-09T08:43:47Z</time>
      </trkpt>
      <trkpt lat="43.02148" lon="-0.46426">
        <ele>1124.879883</ele>
        <time>2012-08-09T08:44:08Z</time>
      </trkpt>
      <trkpt lat="43.02171" lon="-0.46439">
        <ele>1125.360352</ele>
        <time>2012-08-09T08:44:29Z</time>
      </trkpt>
      <trkpt lat="43.02187" lon="-0.4645">
        <ele>1128.244385</ele>
        <time>2012-08-09T08:44:44Z</time>
      </trkpt>
      <trkpt lat="43.02202" lon="-0.46453">
        <ele>1129.686279</ele>
        <time>2012-08-09T08:44:59Z</time>
      </trkpt>
      <trkpt lat="43.02211" lon="-0.46464">
        <ele>1130.647705</ele>
        <time>2012-08-09T08:45:10Z</time>
      </trkpt>
      <trkpt lat="43.02217" lon="-0.46482">
        <ele>1133.051025</ele>
        <time>2012-08-09T08:45:22Z</time>
      </trkpt>
      <trkpt lat="43.02214" lon="-0.46485">
        <ele>1134.493164</ele>
        <time>2012-08-09T08:45:31Z</time>
      </trkpt>
      <trkpt lat="43.0221" lon="-0.46479">
        <ele>1135.935059</ele>
        <time>2012-08-09T08:45:41Z</time>
      </trkpt>
      <trkpt lat="43.02203" lon="-0.46462">
        <ele>1137.857666</ele>
        <time>2012-08-09T08:45:54Z</time>
      </trkpt>
      <trkpt lat="43.02188" lon="-0.46452">
        <ele>1140.260986</ele>
        <time>2012-08-09T08:46:11Z</time>
      </trkpt>
      <trkpt lat="43.02174" lon="-0.4644">
        <ele>1142.183594</ele>
        <time>2012-08-09T08:46:27Z</time>
      </trkpt>
      <trkpt lat="43.02159" lon="-0.46443">
        <ele>1144.106201</ele>
        <time>2012-08-09T08:46:43Z</time>
      </trkpt>
      <trkpt lat="43.0215" lon="-0.46445">
        <ele>1145.548096</ele>
        <time>2012-08-09T08:46:52Z</time>
      </trkpt>
      <trkpt lat="43.02133" lon="-0.46459">
        <ele>1148.912842</ele>
        <time>2012-08-09T08:47:09Z</time>
      </trkpt>
      <trkpt lat="43.02125" lon="-0.46458">
        <ele>1149.874268</ele>
        <time>2012-08-09T08:47:17Z</time>
      </trkpt>
      <trkpt lat="43.02107" lon="-0.46454">
        <ele>1153.23877</ele>
        <time>2012-08-09T08:47:35Z</time>
      </trkpt>
      <trkpt lat="43.02085" lon="-0.46456">
        <ele>1155.64209</ele>
        <time>2012-08-09T08:47:57Z</time>
      </trkpt>
      <trkpt lat="43.02069" lon="-0.46453">
        <ele>1158.525879</ele>
        <time>2012-08-09T08:48:14Z</time>
      </trkpt>
      <trkpt lat="43.02053" lon="-0.46451">
        <ele>1161.409912</ele>
        <time>2012-08-09T08:48:31Z</time>
      </trkpt>
      <trkpt lat="43.0204" lon="-0.46451">
        <ele>1162.851807</ele>
        <time>2012-08-09T08:48:46Z</time>
      </trkpt>
      <trkpt lat="43.02039" lon="-0.46451">
        <ele>1162.851807</ele>
        <time>2012-08-09T08:48:48Z</time>
      </trkpt>
      <trkpt lat="43.02021" lon="-0.46446">
        <ele>1166.216553</ele>
        <time>2012-08-09T08:49:08Z</time>
      </trkpt>
      <trkpt lat="43.02005" lon="-0.4644">
        <ele>1167.658447</ele>
        <time>2012-08-09T08:49:25Z</time>
      </trkpt>
      <trkpt lat="43.01995" lon="-0.46439">
        <ele>1169.100586</ele>
        <time>2012-08-09T08:49:36Z</time>
      </trkpt>
      <trkpt lat="43.01983" lon="-0.46439">
        <ele>1172.465088</ele>
        <time>2012-08-09T08:49:49Z</time>
      </trkpt>
      <trkpt lat="43.01968" lon="-0.4644">
        <ele>1174.868408</ele>
        <time>2012-08-09T08:50:08Z</time>
      </trkpt>
      <trkpt lat="43.01958" lon="-0.46442">
        <ele>1176.791016</ele>
        <time>2012-08-09T08:50:21Z</time>
      </trkpt>
      <trkpt lat="43.01948" lon="-0.46446">
        <ele>1179.194092</ele>
        <time>2012-08-09T08:50:37Z</time>
      </trkpt>
      <trkpt lat="43.01938" lon="-0.46445">
        <ele>1181.597656</ele>
        <time>2012-08-09T08:50:51Z</time>
      </trkpt>
      <trkpt lat="43.01927" lon="-0.46446">
        <ele>1184.000977</ele>
        <time>2012-08-09T08:51:05Z</time>
      </trkpt>
      <trkpt lat="43.01916" lon="-0.46439">
        <ele>1186.404297</ele>
        <time>2012-08-09T08:51:21Z</time>
      </trkpt>
      <trkpt lat="43.01907" lon="-0.46434">
        <ele>1187.365479</ele>
        <time>2012-08-09T08:51:32Z</time>
      </trkpt>
      <trkpt lat="43.01898" lon="-0.46432">
        <ele>1188.807617</ele>
        <time>2012-08-09T08:51:42Z</time>
      </trkpt>
      <trkpt lat="43.01888" lon="-0.4643">
        <ele>1191.691406</ele>
        <time>2012-08-09T08:51:55Z</time>
      </trkpt>
      <trkpt lat="43.01878" lon="-0.46428">
        <ele>1193.133301</ele>
        <time>2012-08-09T08:52:07Z</time>
      </trkpt>
      <trkpt lat="43.01871" lon="-0.46425">
        <ele>1195.055908</ele>
        <time>2012-08-09T08:52:17Z</time>
      </trkpt>
      <trkpt lat="43.01865" lon="-0.46422">
        <ele>1196.017578</ele>
        <time>2012-08-09T08:52:24Z</time>
      </trkpt>
      <trkpt lat="43.01859" lon="-0.46428">
        <ele>1196.97876</ele>
        <time>2012-08-09T08:52:34Z</time>
      </trkpt>
      <trkpt lat="43.01863" lon="-0.46444">
        <ele>1200.343506</ele>
        <time>2012-08-09T08:52:49Z</time>
      </trkpt>
      <trkpt lat="43.01864" lon="-0.46446">
        <ele>1200.823975</ele>
        <time>2012-08-09T08:52:51Z</time>
      </trkpt>
      <trkpt lat="43.0187" lon="-0.46453">
        <ele>1201.304688</ele>
        <time>2012-08-09T08:53:00Z</time>
      </trkpt>
      <trkpt lat="43.01878" lon="-0.46462">
        <ele>1203.227295</ele>
        <time>2012-08-09T08:53:12Z</time>
      </trkpt>
      <trkpt lat="43.01889" lon="-0.46469">
        <ele>1205.149902</ele>
        <time>2012-08-09T08:53:23Z</time>
      </trkpt>
      <trkpt lat="43.01901" lon="-0.4648">
        <ele>1207.553223</ele>
        <time>2012-08-09T08:53:37Z</time>
      </trkpt>
      <trkpt lat="43.01909" lon="-0.46485">
        <ele>1209.956299</ele>
        <time>2012-08-09T08:53:50Z</time>
      </trkpt>
      <trkpt lat="43.01919" lon="-0.46492">
        <ele>1212.359863</ele>
        <time>2012-08-09T08:54:04Z</time>
      </trkpt>
      <trkpt lat="43.01927" lon="-0.46496">
        <ele>1213.801758</ele>
        <time>2012-08-09T08:54:14Z</time>
      </trkpt>
      <trkpt lat="43.01942" lon="-0.46504">
        <ele>1214.763184</ele>
        <time>2012-08-09T08:54:32Z</time>
      </trkpt>
      <trkpt lat="43.01936" lon="-0.46509">
        <ele>1218.127686</ele>
        <time>2012-08-09T08:54:45Z</time>
      </trkpt>
      <trkpt lat="43.01931" lon="-0.46506">
        <ele>1218.608398</ele>
        <time>2012-08-09T08:54:51Z</time>
      </trkpt>
      <trkpt lat="43.01924" lon="-0.46502">
        <ele>1219.089111</ele>
        <time>2012-08-09T08:54:59Z</time>
      </trkpt>
      <trkpt lat="43.0192" lon="-0.46501">
        <ele>1220.050293</ele>
        <time>2012-08-09T08:55:04Z</time>
      </trkpt>
      <trkpt lat="43.019" lon="-0.46493">
        <ele>1222.453613</ele>
        <time>2012-08-09T08:55:24Z</time>
      </trkpt>
      <trkpt lat="43.01891" lon="-0.46488">
        <ele>1223.895508</ele>
        <time>2012-08-09T08:55:33Z</time>
      </trkpt>
      <trkpt lat="43.01881" lon="-0.46493">
        <ele>1226.298828</ele>
        <time>2012-08-09T08:55:43Z</time>
      </trkpt>
      <trkpt lat="43.01878" lon="-0.46494">
        <ele>1226.298828</ele>
        <time>2012-08-09T08:55:47Z</time>
      </trkpt>
      <trkpt lat="43.01868" lon="-0.46492">
        <ele>1227.260254</ele>
        <time>2012-08-09T08:55:59Z</time>
      </trkpt>
      <trkpt lat="43.0186" lon="-0.46491">
        <ele>1227.740723</ele>
        <time>2012-08-09T08:56:07Z</time>
      </trkpt>
      <trkpt lat="43.01856" lon="-0.46487">
        <ele>1228.22168</ele>
        <time>2012-08-09T08:56:12Z</time>
      </trkpt>
      <trkpt lat="43.01846" lon="-0.4648">
        <ele>1230.144287</ele>
        <time>2012-08-09T08:56:23Z</time>
      </trkpt>
      <trkpt lat="43.01834" lon="-0.46481">
        <ele>1232.066895</ele>
        <time>2012-08-09T08:56:36Z</time>
      </trkpt>
      <trkpt lat="43.01829" lon="-0.46481">
        <ele>1232.547607</ele>
        <time>2012-08-09T08:56:41Z</time>
      </trkpt>
      <trkpt lat="43.01812" lon="-0.46482">
        <ele>1234.470215</ele>
        <time>2012-08-09T08:56:57Z</time>
      </trkpt>
      <trkpt lat="43.01801" lon="-0.46475">
        <ele>1236.873291</ele>
        <time>2012-08-09T08:57:09Z</time>
      </trkpt>
      <trkpt lat="43.01785" lon="-0.4646">
        <ele>1239.276611</ele>
        <time>2012-08-09T08:57:28Z</time>
      </trkpt>
      <trkpt lat="43.01775" lon="-0.46453">
        <ele>1240.238037</ele>
        <time>2012-08-09T08:57:39Z</time>
      </trkpt>
      <trkpt lat="43.01767" lon="-0.46456">
        <ele>1240.718506</ele>
        <time>2012-08-09T08:57:47Z</time>
      </trkpt>
      <trkpt lat="43.01766" lon="-0.46472">
        <ele>1242.641357</ele>
        <time>2012-08-09T08:57:59Z</time>
      </trkpt>
      <trkpt lat="43.0177" lon="-0.4648">
        <ele>1242.641357</ele>
        <time>2012-08-09T08:58:07Z</time>
      </trkpt>
      <trkpt lat="43.01776" lon="-0.46488">
        <ele>1244.563965</ele>
        <time>2012-08-09T08:58:14Z</time>
      </trkpt>
      <trkpt lat="43.01792" lon="-0.46503">
        <ele>1246.006104</ele>
        <time>2012-08-09T08:58:33Z</time>
      </trkpt>
      <trkpt lat="43.01805" lon="-0.46513">
        <ele>1246.006104</ele>
        <time>2012-08-09T08:58:47Z</time>
      </trkpt>
      <trkpt lat="43.01814" lon="-0.46519">
        <ele>1247.928711</ele>
        <time>2012-08-09T08:58:57Z</time>
      </trkpt>
      <trkpt lat="43.01822" lon="-0.46522">
        <ele>1250.8125</ele>
        <time>2012-08-09T08:59:06Z</time>
      </trkpt>
      <trkpt lat="43.01831" lon="-0.46528">
        <ele>1252.254395</ele>
        <time>2012-08-09T08:59:15Z</time>
      </trkpt>
      <trkpt lat="43.01839" lon="-0.46535">
        <ele>1254.177246</ele>
        <time>2012-08-09T08:59:24Z</time>
      </trkpt>
      <trkpt lat="43.01852" lon="-0.46547">
        <ele>1255.619141</ele>
        <time>2012-08-09T08:59:41Z</time>
      </trkpt>
      <trkpt lat="43.01865" lon="-0.46548">
        <ele>1258.022461</ele>
        <time>2012-08-09T08:59:54Z</time>
      </trkpt>
      <trkpt lat="43.01877" lon="-0.46557">
        <ele>1260.425781</ele>
        <time>2012-08-09T09:00:10Z</time>
      </trkpt>
      <trkpt lat="43.01886" lon="-0.46573">
        <ele>1262.348389</ele>
        <time>2012-08-09T09:00:24Z</time>
      </trkpt>
      <trkpt lat="43.01893" lon="-0.46581">
        <ele>1263.309814</ele>
        <time>2012-08-09T09:00:34Z</time>
      </trkpt>
      <trkpt lat="43.019" lon="-0.46588">
        <ele>1264.751709</ele>
        <time>2012-08-09T09:00:42Z</time>
      </trkpt>
      <trkpt lat="43.01914" lon="-0.46601">
        <ele>1266.674316</ele>
        <time>2012-08-09T09:00:57Z</time>
      </trkpt>
      <trkpt lat="43.01924" lon="-0.4661">
        <ele>1267.155029</ele>
        <time>2012-08-09T09:01:09Z</time>
      </trkpt>
      <trkpt lat="43.01934" lon="-0.4662">
        <ele>1269.55835</ele>
        <time>2012-08-09T09:01:26Z</time>
      </trkpt>
      <trkpt lat="43.01929" lon="-0.46618">
        <ele>1271.000244</ele>
        <time>2012-08-09T09:01:36Z</time>
      </trkpt>
      <trkpt lat="43.01926" lon="-0.46616">
        <ele>1271.480713</ele>
        <time>2012-08-09T09:01:40Z</time>
      </trkpt>
      <trkpt lat="43.01909" lon="-0.4661">
        <ele>1273.403564</ele>
        <time>2012-08-09T09:01:59Z</time>
      </trkpt>
      <trkpt lat="43.01886" lon="-0.46604">
        <ele>1274.845459</ele>
        <time>2012-08-09T09:02:22Z</time>
      </trkpt>
      <trkpt lat="43.0188" lon="-0.46603">
        <ele>1276.287598</ele>
        <time>2012-08-09T09:02:28Z</time>
      </trkpt>
      <trkpt lat="43.01864" lon="-0.46597">
        <ele>1277.729492</ele>
        <time>2012-08-09T09:02:44Z</time>
      </trkpt>
      <trkpt lat="43.01855" lon="-0.46598">
        <ele>1278.690918</ele>
        <time>2012-08-09T09:02:53Z</time>
      </trkpt>
      <trkpt lat="43.01855" lon="-0.46606">
        <ele>1280.132812</ele>
        <time>2012-08-09T09:02:59Z</time>
      </trkpt>
      <trkpt lat="43.01864" lon="-0.46611">
        <ele>1281.094238</ele>
        <time>2012-08-09T09:03:08Z</time>
      </trkpt>
      <trkpt lat="43.01887" lon="-0.46625">
        <ele>1283.978027</ele>
        <time>2012-08-09T09:03:32Z</time>
      </trkpt>
      <trkpt lat="43.01904" lon="-0.4664">
        <ele>1285.900635</ele>
        <time>2012-08-09T09:03:50Z</time>
      </trkpt>
      <trkpt lat="43.01911" lon="-0.46647">
        <ele>1287.823242</ele>
        <time>2012-08-09T09:04:00Z</time>
      </trkpt>
      <trkpt lat="43.01907" lon="-0.46651">
        <ele>1288.784668</ele>
        <time>2012-08-09T09:04:12Z</time>
      </trkpt>
      <trkpt lat="43.01902" lon="-0.46648">
        <ele>1288.784668</ele>
        <time>2012-08-09T09:04:18Z</time>
      </trkpt>
      <trkpt lat="43.01882" lon="-0.4664">
        <ele>1291.668457</ele>
        <time>2012-08-09T09:04:39Z</time>
      </trkpt>
      <trkpt lat="43.01861" lon="-0.46632">
        <ele>1295.033203</ele>
        <time>2012-08-09T09:05:00Z</time>
      </trkpt>
      <trkpt lat="43.01841" lon="-0.46625">
        <ele>1296.955811</ele>
        <time>2012-08-09T09:05:20Z</time>
      </trkpt>
      <trkpt lat="43.01823" lon="-0.46621">
        <ele>1298.397705</ele>
        <time>2012-08-09T09:05:38Z</time>
      </trkpt>
      <trkpt lat="43.01805" lon="-0.4662">
        <ele>1300.801025</ele>
        <time>2012-08-09T09:05:56Z</time>
      </trkpt>
      <trkpt lat="43.01791" lon="-0.46622">
        <ele>1304.165771</ele>
        <time>2012-08-09T09:06:10Z</time>
      </trkpt>
      <trkpt lat="43.01774" lon="-0.46626">
        <ele>1305.607666</ele>
        <time>2012-08-09T09:06:28Z</time>
      </trkpt>
      <trkpt lat="43.01749" lon="-0.46628">
        <ele>1308.491699</ele>
        <time>2012-08-09T09:06:52Z</time>
      </trkpt>
      <trkpt lat="43.0173" lon="-0.46621">
        <ele>1310.89502</ele>
        <time>2012-08-09T09:07:10Z</time>
      </trkpt>
      <trkpt lat="43.0172" lon="-0.46617">
        <ele>1311.375732</ele>
        <time>2012-08-09T09:07:20Z</time>
      </trkpt>
      <trkpt lat="43.01717" lon="-0.46616">
        <ele>1311.375732</ele>
        <time>2012-08-09T09:07:23Z</time>
      </trkpt>
      <trkpt lat="43.01714" lon="-0.46615">
        <ele>1312.336914</ele>
        <time>2012-08-09T09:07:25Z</time>
      </trkpt>
      <trkpt lat="43.01689" lon="-0.46601">
        <ele>1314.740234</ele>
        <time>2012-08-09T09:07:50Z</time>
      </trkpt>
      <trkpt lat="43.01668" lon="-0.46592">
        <ele>1317.143555</ele>
        <time>2012-08-09T09:08:11Z</time>
      </trkpt>
      <trkpt lat="43.01667" lon="-0.46603">
        <ele>1316.662842</ele>
        <time>2012-08-09T09:08:20Z</time>
      </trkpt>
      <trkpt lat="43.01674" lon="-0.46608">
        <ele>1318.104736</ele>
        <time>2012-08-09T09:08:30Z</time>
      </trkpt>
      <trkpt lat="43.01685" lon="-0.46618">
        <ele>1319.546875</ele>
        <time>2012-08-09T09:08:43Z</time>
      </trkpt>
      <trkpt lat="43.01704" lon="-0.46632">
        <ele>1322.430664</ele>
        <time>2012-08-09T09:09:05Z</time>
      </trkpt>
      <trkpt lat="43.01713" lon="-0.46642">
        <ele>1324.353516</ele>
        <time>2012-08-09T09:09:15Z</time>
      </trkpt>
      <trkpt lat="43.01732" lon="-0.46655">
        <ele>1326.756836</ele>
        <time>2012-08-09T09:09:34Z</time>
      </trkpt>
      <trkpt lat="43.01757" lon="-0.46665">
        <ele>1328.679443</ele>
        <time>2012-08-09T09:09:56Z</time>
      </trkpt>
      <trkpt lat="43.01781" lon="-0.46673">
        <ele>1329.640625</ele>
        <time>2012-08-09T09:10:18Z</time>
      </trkpt>
      <trkpt lat="43.01802" lon="-0.46683">
        <ele>1332.043945</ele>
        <time>2012-08-09T09:10:39Z</time>
      </trkpt>
      <trkpt lat="43.01803" lon="-0.46687">
        <ele>1333.48584</ele>
        <time>2012-08-09T09:10:42Z</time>
      </trkpt>
      <trkpt lat="43.01794" lon="-0.4669">
        <ele>1333.966553</ele>
        <time>2012-08-09T09:10:53Z</time>
      </trkpt>
      <trkpt lat="43.01776" lon="-0.46685">
        <ele>1335.88916</ele>
        <time>2012-08-09T09:11:12Z</time>
      </trkpt>
      <trkpt lat="43.01767" lon="-0.46683">
        <ele>1337.331055</ele>
        <time>2012-08-09T09:11:24Z</time>
      </trkpt>
      <trkpt lat="43.01745" lon="-0.4668">
        <ele>1339.253662</ele>
        <time>2012-08-09T09:11:44Z</time>
      </trkpt>
      <trkpt lat="43.01724" lon="-0.46676">
        <ele>1340.695801</ele>
        <time>2012-08-09T09:12:04Z</time>
      </trkpt>
      <trkpt lat="43.01701" lon="-0.46667">
        <ele>1341.657227</ele>
        <time>2012-08-09T09:12:24Z</time>
      </trkpt>
      <trkpt lat="43.01685" lon="-0.4665">
        <ele>1342.137939</ele>
        <time>2012-08-09T09:12:41Z</time>
      </trkpt>
      <trkpt lat="43.01665" lon="-0.46636">
        <ele>1343.099121</ele>
        <time>2012-08-09T09:13:00Z</time>
      </trkpt>
      <trkpt lat="43.01639" lon="-0.46632">
        <ele>1344.060547</ele>
        <time>2012-08-09T09:13:22Z</time>
      </trkpt>
      <trkpt lat="43.01628" lon="-0.46631">
        <ele>1345.502441</ele>
        <time>2012-08-09T09:13:33Z</time>
      </trkpt>
      <trkpt lat="43.01615" lon="-0.46631">
        <ele>1348.866943</ele>
        <time>2012-08-09T09:13:47Z</time>
      </trkpt>
      <trkpt lat="43.01602" lon="-0.46633">
        <ele>1351.270264</ele>
        <time>2012-08-09T09:14:01Z</time>
      </trkpt>
      <trkpt lat="43.01588" lon="-0.46633">
        <ele>1354.154297</ele>
        <time>2012-08-09T09:14:16Z</time>
      </trkpt>
      <trkpt lat="43.01581" lon="-0.46633">
        <ele>1355.596191</ele>
        <time>2012-08-09T09:14:24Z</time>
      </trkpt>
      <trkpt lat="43.01565" lon="-0.46628">
        <ele>1357.03833</ele>
        <time>2012-08-09T09:14:43Z</time>
      </trkpt>
      <trkpt lat="43.01558" lon="-0.46621">
        <ele>1358.960938</ele>
        <time>2012-08-09T09:14:51Z</time>
      </trkpt>
      <trkpt lat="43.01553" lon="-0.46616">
        <ele>1359.922119</ele>
        <time>2012-08-09T09:14:57Z</time>
      </trkpt>
      <trkpt lat="43.01546" lon="-0.4661">
        <ele>1361.364258</ele>
        <time>2012-08-09T09:15:05Z</time>
      </trkpt>
      <trkpt lat="43.01531" lon="-0.46594">
        <ele>1361.844971</ele>
        <time>2012-08-09T09:15:23Z</time>
      </trkpt>
      <trkpt lat="43.01523" lon="-0.46577">
        <ele>1361.364258</ele>
        <time>2012-08-09T09:15:37Z</time>
      </trkpt>
      <trkpt lat="43.01519" lon="-0.46562">
        <ele>1361.844971</ele>
        <time>2012-08-09T09:15:50Z</time>
      </trkpt>
      <trkpt lat="43.01515" lon="-0.46561">
        <ele>1362.325439</ele>
        <time>2012-08-09T09:15:53Z</time>
      </trkpt>
      <trkpt lat="43.01511" lon="-0.46571">
        <ele>1364.248047</ele>
        <time>2012-08-09T09:16:03Z</time>
      </trkpt>
      <trkpt lat="43.01511" lon="-0.46574">
        <ele>1365.209473</ele>
        <time>2012-08-09T09:16:06Z</time>
      </trkpt>
      <trkpt lat="43.01515" lon="-0.46581">
        <ele>1366.170654</ele>
        <time>2012-08-09T09:16:20Z</time>
      </trkpt>
      <trkpt lat="43.01518" lon="-0.46598">
        <ele>1368.573975</ele>
        <time>2012-08-09T09:16:36Z</time>
      </trkpt>
      <trkpt lat="43.01523" lon="-0.46612">
        <ele>1371.938477</ele>
        <time>2012-08-09T09:16:47Z</time>
      </trkpt>
      <trkpt lat="43.01536" lon="-0.46633">
        <ele>1374.822754</ele>
        <time>2012-08-09T09:17:07Z</time>
      </trkpt>
      <trkpt lat="43.01549" lon="-0.46653">
        <ele>1376.264648</ele>
        <time>2012-08-09T09:17:27Z</time>
      </trkpt>
      <trkpt lat="43.01558" lon="-0.46666">
        <ele>1380.109863</ele>
        <time>2012-08-09T09:17:42Z</time>
      </trkpt>
      <trkpt lat="43.01571" lon="-0.46676">
        <ele>1381.551758</ele>
        <time>2012-08-09T09:17:59Z</time>
      </trkpt>
      <trkpt lat="43.01572" lon="-0.46677">
        <ele>1382.032471</ele>
        <time>2012-08-09T09:18:10Z</time>
      </trkpt>
      <trkpt lat="43.01572" lon="-0.46686">
        <ele>1382.993652</ele>
        <time>2012-08-09T09:18:21Z</time>
      </trkpt>
      <trkpt lat="43.01565" lon="-0.46688">
        <ele>1386.358398</ele>
        <time>2012-08-09T09:18:34Z</time>
      </trkpt>
      <trkpt lat="43.01559" lon="-0.46691">
        <ele>1388.28125</ele>
        <time>2012-08-09T09:18:47Z</time>
      </trkpt>
      <trkpt lat="43.01554" lon="-0.46695">
        <ele>1390.203857</ele>
        <time>2012-08-09T09:19:02Z</time>
      </trkpt>
      <trkpt lat="43.01545" lon="-0.46696">
        <ele>1392.607178</ele>
        <time>2012-08-09T09:19:19Z</time>
      </trkpt>
      <trkpt lat="43.01538" lon="-0.46695">
        <ele>1395.010254</ele>
        <time>2012-08-09T09:19:33Z</time>
      </trkpt>
      <trkpt lat="43.01531" lon="-0.46699">
        <ele>1397.413574</ele>
        <time>2012-08-09T09:19:49Z</time>
      </trkpt>
      <trkpt lat="43.01527" lon="-0.46705">
        <ele>1399.336182</ele>
        <time>2012-08-09T09:20:03Z</time>
      </trkpt>
      <trkpt lat="43.01518" lon="-0.46704">
        <ele>1400.297607</ele>
        <time>2012-08-09T09:20:16Z</time>
      </trkpt>
      <trkpt lat="43.01504" lon="-0.46696">
        <ele>1402.219971</ele>
        <time>2012-08-09T09:20:34Z</time>
      </trkpt>
      <trkpt lat="43.0149" lon="-0.46686">
        <ele>1405.104248</ele>
        <time>2012-08-09T09:20:51Z</time>
      </trkpt>
      <trkpt lat="43.01475" lon="-0.46695">
        <ele>1407.988281</ele>
        <time>2012-08-09T09:21:11Z</time>
      </trkpt>
      <trkpt lat="43.01465" lon="-0.46711">
        <ele>1411.352783</ele>
        <time>2012-08-09T09:21:29Z</time>
      </trkpt>
      <trkpt lat="43.0146" lon="-0.46722">
        <ele>1414.717285</ele>
        <time>2012-08-09T09:21:41Z</time>
      </trkpt>
      <trkpt lat="43.0146" lon="-0.46723">
        <ele>1414.236572</ele>
        <time>2012-08-09T09:21:42Z</time>
      </trkpt>
      <trkpt lat="43.01457" lon="-0.46741">
        <ele>1417.120605</ele>
        <time>2012-08-09T09:21:58Z</time>
      </trkpt>
      <trkpt lat="43.01458" lon="-0.46763">
        <ele>1419.043213</ele>
        <time>2012-08-09T09:22:16Z</time>
      </trkpt>
      <trkpt lat="43.01458" lon="-0.46767">
        <ele>1420.004639</ele>
        <time>2012-08-09T09:22:19Z</time>
      </trkpt>
      <trkpt lat="43.01451" lon="-0.46785">
        <ele>1422.407959</ele>
        <time>2012-08-09T09:22:38Z</time>
      </trkpt>
      <trkpt lat="43.01444" lon="-0.46798">
        <ele>1422.888672</ele>
        <time>2012-08-09T09:22:54Z</time>
      </trkpt>
      <trkpt lat="43.01437" lon="-0.46804">
        <ele>1426.253174</ele>
        <time>2012-08-09T09:23:05Z</time>
      </trkpt>
      <trkpt lat="43.01435" lon="-0.46804">
        <ele>1426.733887</ele>
        <time>2012-08-09T09:23:07Z</time>
      </trkpt>
      <trkpt lat="43.01434" lon="-0.46804">
        <ele>1427.2146</ele>
        <time>2012-08-09T09:23:08Z</time>
      </trkpt>
      <trkpt lat="43.01425" lon="-0.46805">
        <ele>1428.175781</ele>
        <time>2012-08-09T09:23:18Z</time>
      </trkpt>
      <trkpt lat="43.01406" lon="-0.46816">
        <ele>1430.579102</ele>
        <time>2012-08-09T09:23:39Z</time>
      </trkpt>
      <trkpt lat="43.01387" lon="-0.46825">
        <ele>1433.943604</ele>
        <time>2012-08-09T09:24:00Z</time>
      </trkpt>
      <trkpt lat="43.01373" lon="-0.46842">
        <ele>1436.827637</ele>
        <time>2012-08-09T09:24:19Z</time>
      </trkpt>
      <trkpt lat="43.01354" lon="-0.4685">
        <ele>1438.750488</ele>
        <time>2012-08-09T09:24:39Z</time>
      </trkpt>
      <trkpt lat="43.0134" lon="-0.46849">
        <ele>1440.672852</ele>
        <time>2012-08-09T09:24:54Z</time>
      </trkpt>
      <trkpt lat="43.01324" lon="-0.46843">
        <ele>1442.595703</ele>
        <time>2012-08-09T09:25:11Z</time>
      </trkpt>
      <trkpt lat="43.01307" lon="-0.46838">
        <ele>1444.998779</ele>
        <time>2012-08-09T09:25:27Z</time>
      </trkpt>
      <trkpt lat="43.01294" lon="-0.46836">
        <ele>1448.363281</ele>
        <time>2012-08-09T09:25:42Z</time>
      </trkpt>
      <trkpt lat="43.01277" lon="-0.46836">
        <ele>1449.324707</ele>
        <time>2012-08-09T09:25:59Z</time>
      </trkpt>
      <trkpt lat="43.01265" lon="-0.46834">
        <ele>1450.286133</ele>
        <time>2012-08-09T09:26:11Z</time>
      </trkpt>
      <trkpt lat="43.01249" lon="-0.46822">
        <ele>1448.843994</ele>
        <time>2012-08-09T09:26:31Z</time>
      </trkpt>
      <trkpt lat="43.01245" lon="-0.46818">
        <ele>1449.324707</ele>
        <time>2012-08-09T09:26:36Z</time>
      </trkpt>
      <trkpt lat="43.0124" lon="-0.46804">
        <ele>1447.4021</ele>
        <time>2012-08-09T09:26:50Z</time>
      </trkpt>
      <trkpt lat="43.01241" lon="-0.46785">
        <ele>1445.479492</ele>
        <time>2012-08-09T09:27:05Z</time>
      </trkpt>
      <trkpt lat="43.01242" lon="-0.46775">
        <ele>1444.998779</ele>
        <time>2012-08-09T09:27:19Z</time>
      </trkpt>
      <trkpt lat="43.01245" lon="-0.46754">
        <ele>1443.076172</ele>
        <time>2012-08-09T09:27:46Z</time>
      </trkpt>
      <trkpt lat="43.01245" lon="-0.46741">
        <ele>1442.11499</ele>
        <time>2012-08-09T09:27:55Z</time>
      </trkpt>
      <trkpt lat="43.01248" lon="-0.46719">
        <ele>1439.230957</ele>
        <time>2012-08-09T09:28:10Z</time>
      </trkpt>
      <trkpt lat="43.01245" lon="-0.46703">
        <ele>1435.866211</ele>
        <time>2012-08-09T09:28:23Z</time>
      </trkpt>
      <trkpt lat="43.01225" lon="-0.4671">
        <ele>1435.385498</ele>
        <time>2012-08-09T09:28:41Z</time>
      </trkpt>
      <trkpt lat="43.01205" lon="-0.46733">
        <ele>1434.424316</ele>
        <time>2012-08-09T09:29:04Z</time>
      </trkpt>
      <trkpt lat="43.01191" lon="-0.46753">
        <ele>1433.462891</ele>
        <time>2012-08-09T09:29:25Z</time>
      </trkpt>
      <trkpt lat="43.01183" lon="-0.46772">
        <ele>1432.982178</ele>
        <time>2012-08-09T09:29:40Z</time>
      </trkpt>
      <trkpt lat="43.0118" lon="-0.46773">
        <ele>1432.982178</ele>
        <time>2012-08-09T09:29:43Z</time>
      </trkpt>
      <trkpt lat="43.01167" lon="-0.4677">
        <ele>1435.385498</ele>
        <time>2012-08-09T09:29:57Z</time>
      </trkpt>
      <trkpt lat="43.01154" lon="-0.46769">
        <ele>1436.347168</ele>
        <time>2012-08-09T09:30:14Z</time>
      </trkpt>
      <trkpt lat="43.01149" lon="-0.46772">
        <ele>1437.30835</ele>
        <time>2012-08-09T09:30:22Z</time>
      </trkpt>
      <trkpt lat="43.01154" lon="-0.46765">
        <ele>1435.385498</ele>
        <time>2012-08-09T09:30:38Z</time>
      </trkpt>
      <trkpt lat="43.01153" lon="-0.46764">
        <ele>1436.347168</ele>
        <time>2012-08-09T09:31:30Z</time>
      </trkpt>
      <trkpt lat="43.01152" lon="-0.46762">
        <ele>1436.347168</ele>
        <time>2012-08-09T09:32:43Z</time>
      </trkpt>
      <trkpt lat="43.01153" lon="-0.46766">
        <ele>1436.347168</ele>
        <time>2012-08-09T09:33:41Z</time>
      </trkpt>
    </trkseg>
  </trk>
  <trk>
    <name><![CDATA[ACTIVE LOG 003]]></name>
    <trkseg>
      <trkpt lat="43.01153" lon="-0.46767">
        <ele>1396.932861</ele>
        <time>2012-08-09T09:36:22Z</time>
      </trkpt>
      <trkpt lat="43.01153" lon="-0.46767">
        <ele>1393.087646</ele>
        <time>2012-08-09T09:36:23Z</time>
      </trkpt>
    </trkseg>
  </trk>
  <trk>
    <name><![CDATA[ACTIVE LOG 004]]></name>
    <trkseg>
      <trkpt lat="43.01202" lon="-0.46749">
        <ele>1393.087646</ele>
        <time>2012-08-09T09:36:24Z</time>
      </trkpt>
      <trkpt lat="43.01149" lon="-0.4676">
        <ele>1396.452393</ele>
        <time>2012-08-09T09:36:31Z</time>
      </trkpt>
      <trkpt lat="43.01149" lon="-0.46761">
        <ele>1395.97168</ele>
        <time>2012-08-09T09:36:32Z</time>
      </trkpt>
      <trkpt lat="43.0115" lon="-0.46762">
        <ele>1400.778076</ele>
        <time>2012-08-09T09:36:34Z</time>
      </trkpt>
      <trkpt lat="43.01151" lon="-0.46762">
        <ele>1401.258789</ele>
        <time>2012-08-09T09:36:35Z</time>
      </trkpt>
      <trkpt lat="43.01153" lon="-0.46764">
        <ele>1404.143066</ele>
        <time>2012-08-09T09:36:38Z</time>
      </trkpt>
      <trkpt lat="43.01154" lon="-0.46764">
        <ele>1407.988281</ele>
        <time>2012-08-09T09:36:41Z</time>
      </trkpt>
      <trkpt lat="43.01155" lon="-0.46765">
        <ele>1411.352783</ele>
        <time>2012-08-09T09:36:44Z</time>
      </trkpt>
      <trkpt lat="43.01156" lon="-0.46764">
        <ele>1414.717285</ele>
        <time>2012-08-09T09:36:47Z</time>
      </trkpt>
      <trkpt lat="43.01156" lon="-0.46764">
        <ele>1419.043213</ele>
        <time>2012-08-09T09:36:51Z</time>
      </trkpt>
      <trkpt lat="43.01157" lon="-0.46764">
        <ele>1422.407959</ele>
        <time>2012-08-09T09:36:55Z</time>
      </trkpt>
      <trkpt lat="43.01155" lon="-0.46764">
        <ele>1425.291748</ele>
        <time>2012-08-09T09:36:59Z</time>
      </trkpt>
      <trkpt lat="43.01157" lon="-0.46766">
        <ele>1428.175781</ele>
        <time>2012-08-09T09:37:04Z</time>
      </trkpt>
      <trkpt lat="43.01156" lon="-0.46768">
        <ele>1432.020996</ele>
        <time>2012-08-09T09:37:08Z</time>
      </trkpt>
      <trkpt lat="43.01155" lon="-0.46769">
        <ele>1433.462891</ele>
        <time>2012-08-09T09:37:10Z</time>
      </trkpt>
      <trkpt lat="43.0115" lon="-0.46773">
        <ele>1436.827637</ele>
        <time>2012-08-09T09:37:16Z</time>
      </trkpt>
      <trkpt lat="43.01148" lon="-0.46773">
        <ele>1436.827637</ele>
        <time>2012-08-09T09:37:17Z</time>
      </trkpt>
      <trkpt lat="43.01145" lon="-0.46774">
        <ele>1439.230957</ele>
        <time>2012-08-09T09:37:21Z</time>
      </trkpt>
      <trkpt lat="43.01142" lon="-0.46775">
        <ele>1442.595703</ele>
        <time>2012-08-09T09:37:26Z</time>
      </trkpt>
      <trkpt lat="43.01138" lon="-0.46776">
        <ele>1445.479492</ele>
        <time>2012-08-09T09:37:32Z</time>
      </trkpt>
      <trkpt lat="43.01134" lon="-0.4678">
        <ele>1448.363281</ele>
        <time>2012-08-09T09:37:39Z</time>
      </trkpt>
      <trkpt lat="43.01123" lon="-0.4679">
        <ele>1449.324707</ele>
        <time>2012-08-09T09:37:54Z</time>
      </trkpt>
      <trkpt lat="43.01111" lon="-0.46794">
        <ele>1448.843994</ele>
        <time>2012-08-09T09:38:08Z</time>
      </trkpt>
      <trkpt lat="43.01101" lon="-0.46793">
        <ele>1450.286133</ele>
        <time>2012-08-09T09:38:24Z</time>
      </trkpt>
      <trkpt lat="43.01087" lon="-0.46792">
        <ele>1452.20874</ele>
        <time>2012-08-09T09:38:41Z</time>
      </trkpt>
      <trkpt lat="43.01078" lon="-0.46793">
        <ele>1455.573486</ele>
        <time>2012-08-09T09:38:53Z</time>
      </trkpt>
      <trkpt lat="43.01068" lon="-0.46797">
        <ele>1457.496094</ele>
        <time>2012-08-09T09:39:09Z</time>
      </trkpt>
      <trkpt lat="43.01059" lon="-0.46796">
        <ele>1458.457275</ele>
        <time>2012-08-09T09:39:22Z</time>
      </trkpt>
      <trkpt lat="43.01046" lon="-0.46796">
        <ele>1461.822021</ele>
        <time>2012-08-09T09:39:40Z</time>
      </trkpt>
      <trkpt lat="43.01031" lon="-0.46793">
        <ele>1464.225098</ele>
        <time>2012-08-09T09:40:00Z</time>
      </trkpt>
      <trkpt lat="43.01019" lon="-0.46791">
        <ele>1467.5896</ele>
        <time>2012-08-09T09:40:15Z</time>
      </trkpt>
      <trkpt lat="43.01007" lon="-0.4679">
        <ele>1469.031982</ele>
        <time>2012-08-09T09:40:32Z</time>
      </trkpt>
      <trkpt lat="43.00994" lon="-0.46785">
        <ele>1471.915771</ele>
        <time>2012-08-09T09:40:51Z</time>
      </trkpt>
      <trkpt lat="43.00987" lon="-0.46778">
        <ele>1472.877197</ele>
        <time>2012-08-09T09:41:03Z</time>
      </trkpt>
      <trkpt lat="43.00973" lon="-0.46774">
        <ele>1474.799805</ele>
        <time>2012-08-09T09:41:20Z</time>
      </trkpt>
      <trkpt lat="43.00956" lon="-0.46774">
        <ele>1477.683594</ele>
        <time>2012-08-09T09:41:39Z</time>
      </trkpt>
      <trkpt lat="43.00953" lon="-0.46774">
        <ele>1478.64502</ele>
        <time>2012-08-09T09:41:43Z</time>
      </trkpt>
      <trkpt lat="43.00936" lon="-0.46769">
        <ele>1477.683594</ele>
        <time>2012-08-09T09:42:03Z</time>
      </trkpt>
      <trkpt lat="43.00928" lon="-0.46766">
        <ele>1481.04834</ele>
        <time>2012-08-09T09:42:14Z</time>
      </trkpt>
      <trkpt lat="43.00916" lon="-0.46763">
        <ele>1483.932129</ele>
        <time>2012-08-09T09:42:32Z</time>
      </trkpt>
      <trkpt lat="43.00905" lon="-0.46759">
        <ele>1487.296875</ele>
        <time>2012-08-09T09:42:47Z</time>
      </trkpt>
      <trkpt lat="43.00892" lon="-0.46754">
        <ele>1487.777588</ele>
        <time>2012-08-09T09:43:06Z</time>
      </trkpt>
      <trkpt lat="43.00875" lon="-0.4675">
        <ele>1490.661377</ele>
        <time>2012-08-09T09:43:27Z</time>
      </trkpt>
      <trkpt lat="43.00873" lon="-0.46749">
        <ele>1491.622803</ele>
        <time>2012-08-09T09:43:29Z</time>
      </trkpt>
      <trkpt lat="43.00866" lon="-0.46744">
        <ele>1492.103516</ele>
        <time>2012-08-09T09:43:45Z</time>
      </trkpt>
      <trkpt lat="43.00862" lon="-0.46739">
        <ele>1491.14209</ele>
        <time>2012-08-09T09:43:53Z</time>
      </trkpt>
      <trkpt lat="43.00846" lon="-0.46724">
        <ele>1490.661377</ele>
        <time>2012-08-09T09:44:14Z</time>
      </trkpt>
      <trkpt lat="43.00841" lon="-0.4672">
        <ele>1493.064697</ele>
        <time>2012-08-09T09:44:23Z</time>
      </trkpt>
      <trkpt lat="43.00832" lon="-0.4672">
        <ele>1494.506592</ele>
        <time>2012-08-09T09:44:34Z</time>
      </trkpt>
      <trkpt lat="43.00817" lon="-0.46725">
        <ele>1495.468018</ele>
        <time>2012-08-09T09:44:53Z</time>
      </trkpt>
      <trkpt lat="43.00825" lon="-0.46717">
        <ele>1497.390625</ele>
        <time>2012-08-09T09:45:09Z</time>
      </trkpt>
      <trkpt lat="43.00827" lon="-0.46714">
        <ele>1497.390625</ele>
        <time>2012-08-09T09:45:15Z</time>
      </trkpt>
      <trkpt lat="43.00837" lon="-0.46706">
        <ele>1498.83252</ele>
        <time>2012-08-09T09:45:31Z</time>
      </trkpt>
      <trkpt lat="43.00839" lon="-0.46703">
        <ele>1500.755371</ele>
        <time>2012-08-09T09:45:35Z</time>
      </trkpt>
      <trkpt lat="43.00841" lon="-0.46701">
        <ele>1500.274902</ele>
        <time>2012-08-09T09:45:38Z</time>
      </trkpt>
      <trkpt lat="43.00847" lon="-0.46682">
        <ele>1499.793945</ele>
        <time>2012-08-09T09:45:55Z</time>
      </trkpt>
      <trkpt lat="43.00848" lon="-0.46662">
        <ele>1500.755371</ele>
        <time>2012-08-09T09:46:12Z</time>
      </trkpt>
      <trkpt lat="43.00857" lon="-0.46649">
        <ele>1502.197266</ele>
        <time>2012-08-09T09:46:30Z</time>
      </trkpt>
      <trkpt lat="43.00864" lon="-0.46645">
        <ele>1502.197266</ele>
        <time>2012-08-09T09:46:38Z</time>
      </trkpt>
      <trkpt lat="43.0088" lon="-0.46645">
        <ele>1503.158691</ele>
        <time>2012-08-09T09:46:56Z</time>
      </trkpt>
      <trkpt lat="43.00891" lon="-0.46644">
        <ele>1503.639404</ele>
        <time>2012-08-09T09:47:10Z</time>
      </trkpt>
      <trkpt lat="43.00901" lon="-0.46642">
        <ele>1504.600586</ele>
        <time>2012-08-09T09:47:28Z</time>
      </trkpt>
      <trkpt lat="43.009" lon="-0.46642">
        <ele>1504.600586</ele>
        <time>2012-08-09T09:47:53Z</time>
      </trkpt>
      <trkpt lat="43.00909" lon="-0.46643">
        <ele>1505.562012</ele>
        <time>2012-08-09T09:48:15Z</time>
      </trkpt>
      <trkpt lat="43.00919" lon="-0.46634">
        <ele>1507.484619</ele>
        <time>2012-08-09T09:48:32Z</time>
      </trkpt>
      <trkpt lat="43.00929" lon="-0.46623">
        <ele>1507.965332</ele>
        <time>2012-08-09T09:48:49Z</time>
      </trkpt>
      <trkpt lat="43.00936" lon="-0.46612">
        <ele>1509.407227</ele>
        <time>2012-08-09T09:49:04Z</time>
      </trkpt>
      <trkpt lat="43.00948" lon="-0.46598">
        <ele>1511.329834</ele>
        <time>2012-08-09T09:49:24Z</time>
      </trkpt>
      <trkpt lat="43.00958" lon="-0.46587">
        <ele>1511.810547</ele>
        <time>2012-08-09T09:49:40Z</time>
      </trkpt>
      <trkpt lat="43.00971" lon="-0.46578">
        <ele>1512.291016</ele>
        <time>2012-08-09T09:50:00Z</time>
      </trkpt>
      <trkpt lat="43.00979" lon="-0.46574">
        <ele>1511.810547</ele>
        <time>2012-08-09T09:50:16Z</time>
      </trkpt>
      <trkpt lat="43.00996" lon="-0.46563">
        <ele>1512.771729</ele>
        <time>2012-08-09T09:50:37Z</time>
      </trkpt>
      <trkpt lat="43.01008" lon="-0.46554">
        <ele>1514.213623</ele>
        <time>2012-08-09T09:50:54Z</time>
      </trkpt>
      <trkpt lat="43.01019" lon="-0.46548">
        <ele>1515.175049</ele>
        <time>2012-08-09T09:51:22Z</time>
      </trkpt>
      <trkpt lat="43.01031" lon="-0.46535">
        <ele>1517.0979</ele>
        <time>2012-08-09T09:51:41Z</time>
      </trkpt>
      <trkpt lat="43.01041" lon="-0.46527">
        <ele>1519.020508</ele>
        <time>2012-08-09T09:51:58Z</time>
      </trkpt>
      <trkpt lat="43.01052" lon="-0.46524">
        <ele>1520.462402</ele>
        <time>2012-08-09T09:52:15Z</time>
      </trkpt>
      <trkpt lat="43.01063" lon="-0.46518">
        <ele>1523.346436</ele>
        <time>2012-08-09T09:52:32Z</time>
      </trkpt>
      <trkpt lat="43.01071" lon="-0.46512">
        <ele>1525.749512</ele>
        <time>2012-08-09T09:52:51Z</time>
      </trkpt>
      <trkpt lat="43.01076" lon="-0.46508">
        <ele>1527.19165</ele>
        <time>2012-08-09T09:53:08Z</time>
      </trkpt>
      <trkpt lat="43.01083" lon="-0.465">
        <ele>1529.114014</ele>
        <time>2012-08-09T09:53:25Z</time>
      </trkpt>
      <trkpt lat="43.01089" lon="-0.46487">
        <ele>1531.998047</ele>
        <time>2012-08-09T09:53:44Z</time>
      </trkpt>
      <trkpt lat="43.01094" lon="-0.46478">
        <ele>1533.440186</ele>
        <time>2012-08-09T09:54:03Z</time>
      </trkpt>
      <trkpt lat="43.01097" lon="-0.46469">
        <ele>1534.882324</ele>
        <time>2012-08-09T09:54:17Z</time>
      </trkpt>
      <trkpt lat="43.01098" lon="-0.46463">
        <ele>1536.804688</ele>
        <time>2012-08-09T09:54:34Z</time>
      </trkpt>
      <trkpt lat="43.01102" lon="-0.46457">
        <ele>1539.208008</ele>
        <time>2012-08-09T09:54:50Z</time>
      </trkpt>
      <trkpt lat="43.01108" lon="-0.4645">
        <ele>1540.169434</ele>
        <time>2012-08-09T09:55:07Z</time>
      </trkpt>
      <trkpt lat="43.01112" lon="-0.46442">
        <ele>1542.572754</ele>
        <time>2012-08-09T09:55:26Z</time>
      </trkpt>
      <trkpt lat="43.01118" lon="-0.46431">
        <ele>1544.014648</ele>
        <time>2012-08-09T09:55:42Z</time>
      </trkpt>
      <trkpt lat="43.01121" lon="-0.46419">
        <ele>1545.456543</ele>
        <time>2012-08-09T09:55:55Z</time>
      </trkpt>
      <trkpt lat="43.01129" lon="-0.46409">
        <ele>1547.859863</ele>
        <time>2012-08-09T09:56:13Z</time>
      </trkpt>
      <trkpt lat="43.01134" lon="-0.46398">
        <ele>1549.782715</ele>
        <time>2012-08-09T09:56:30Z</time>
      </trkpt>
      <trkpt lat="43.01139" lon="-0.46387">
        <ele>1551.224609</ele>
        <time>2012-08-09T09:56:45Z</time>
      </trkpt>
      <trkpt lat="43.01142" lon="-0.46376">
        <ele>1551.705322</ele>
        <time>2012-08-09T09:56:59Z</time>
      </trkpt>
      <trkpt lat="43.01144" lon="-0.46376">
        <ele>1553.147217</ele>
        <time>2012-08-09T09:57:22Z</time>
      </trkpt>
      <trkpt lat="43.01147" lon="-0.46371">
        <ele>1553.62793</ele>
        <time>2012-08-09T09:58:05Z</time>
      </trkpt>
      <trkpt lat="43.01152" lon="-0.46357">
        <ele>1555.069824</ele>
        <time>2012-08-09T09:58:20Z</time>
      </trkpt>
      <trkpt lat="43.01154" lon="-0.46348">
        <ele>1553.62793</ele>
        <time>2012-08-09T09:58:28Z</time>
      </trkpt>
      <trkpt lat="43.0116" lon="-0.46336">
        <ele>1553.147217</ele>
        <time>2012-08-09T09:58:41Z</time>
      </trkpt>
      <trkpt lat="43.01164" lon="-0.46327">
        <ele>1555.550537</ele>
        <time>2012-08-09T09:58:53Z</time>
      </trkpt>
      <trkpt lat="43.01172" lon="-0.4632">
        <ele>1556.511719</ele>
        <time>2012-08-09T09:59:06Z</time>
      </trkpt>
      <trkpt lat="43.0118" lon="-0.46311">
        <ele>1558.915039</ele>
        <time>2012-08-09T09:59:20Z</time>
      </trkpt>
      <trkpt lat="43.01187" lon="-0.46304">
        <ele>1558.434326</ele>
        <time>2012-08-09T09:59:32Z</time>
      </trkpt>
      <trkpt lat="43.01195" lon="-0.46291">
        <ele>1558.915039</ele>
        <time>2012-08-09T09:59:47Z</time>
      </trkpt>
      <trkpt lat="43.01199" lon="-0.46282">
        <ele>1561.799072</ele>
        <time>2012-08-09T09:59:59Z</time>
      </trkpt>
      <trkpt lat="43.01207" lon="-0.4627">
        <ele>1562.760254</ele>
        <time>2012-08-09T10:00:13Z</time>
      </trkpt>
      <trkpt lat="43.01208" lon="-0.46255">
        <ele>1564.683105</ele>
        <time>2012-08-09T10:00:28Z</time>
      </trkpt>
      <trkpt lat="43.01212" lon="-0.46246">
        <ele>1567.086426</ele>
        <time>2012-08-09T10:00:41Z</time>
      </trkpt>
      <trkpt lat="43.01217" lon="-0.46234">
        <ele>1569.009033</ele>
        <time>2012-08-09T10:00:54Z</time>
      </trkpt>
      <trkpt lat="43.01221" lon="-0.46219">
        <ele>1571.412109</ele>
        <time>2012-08-09T10:01:09Z</time>
      </trkpt>
      <trkpt lat="43.01222" lon="-0.46206">
        <ele>1574.776855</ele>
        <time>2012-08-09T10:01:25Z</time>
      </trkpt>
      <trkpt lat="43.01228" lon="-0.46196">
        <ele>1576.699463</ele>
        <time>2012-08-09T10:01:39Z</time>
      </trkpt>
      <trkpt lat="43.01234" lon="-0.46194">
        <ele>1579.583252</ele>
        <time>2012-08-09T10:01:56Z</time>
      </trkpt>
      <trkpt lat="43.0124" lon="-0.46189">
        <ele>1581.025635</ele>
        <time>2012-08-09T10:02:10Z</time>
      </trkpt>
      <trkpt lat="43.01247" lon="-0.46181">
        <ele>1584.390137</ele>
        <time>2012-08-09T10:02:25Z</time>
      </trkpt>
      <trkpt lat="43.01253" lon="-0.46167">
        <ele>1587.273926</ele>
        <time>2012-08-09T10:02:45Z</time>
      </trkpt>
      <trkpt lat="43.01255" lon="-0.46159">
        <ele>1590.638428</ele>
        <time>2012-08-09T10:03:06Z</time>
      </trkpt>
      <trkpt lat="43.01259" lon="-0.46159">
        <ele>1592.080566</ele>
        <time>2012-08-09T10:03:22Z</time>
      </trkpt>
      <trkpt lat="43.01261" lon="-0.46153">
        <ele>1594.003174</ele>
        <time>2012-08-09T10:03:35Z</time>
      </trkpt>
      <trkpt lat="43.01262" lon="-0.46149">
        <ele>1594.964355</ele>
        <time>2012-08-09T10:03:47Z</time>
      </trkpt>
      <trkpt lat="43.01261" lon="-0.46139">
        <ele>1598.329102</ele>
        <time>2012-08-09T10:04:02Z</time>
      </trkpt>
      <trkpt lat="43.01262" lon="-0.4613">
        <ele>1599.290527</ele>
        <time>2012-08-09T10:04:15Z</time>
      </trkpt>
      <trkpt lat="43.01264" lon="-0.4612">
        <ele>1601.213135</ele>
        <time>2012-08-09T10:04:31Z</time>
      </trkpt>
      <trkpt lat="43.01267" lon="-0.46109">
        <ele>1603.616455</ele>
        <time>2012-08-09T10:04:47Z</time>
      </trkpt>
      <trkpt lat="43.01266" lon="-0.46101">
        <ele>1604.577637</ele>
        <time>2012-08-09T10:05:01Z</time>
      </trkpt>
      <trkpt lat="43.01265" lon="-0.46092">
        <ele>1606.500244</ele>
        <time>2012-08-09T10:05:15Z</time>
      </trkpt>
      <trkpt lat="43.01265" lon="-0.46082">
        <ele>1607.942383</ele>
        <time>2012-08-09T10:05:31Z</time>
      </trkpt>
      <trkpt lat="43.01267" lon="-0.46075">
        <ele>1610.345459</ele>
        <time>2012-08-09T10:05:47Z</time>
      </trkpt>
      <trkpt lat="43.01267" lon="-0.46069">
        <ele>1613.710205</ele>
        <time>2012-08-09T10:06:00Z</time>
      </trkpt>
      <trkpt lat="43.01264" lon="-0.46061">
        <ele>1617.074951</ele>
        <time>2012-08-09T10:06:18Z</time>
      </trkpt>
      <trkpt lat="43.0127" lon="-0.46063">
        <ele>1619.95874</ele>
        <time>2012-08-09T10:06:39Z</time>
      </trkpt>
      <trkpt lat="43.01275" lon="-0.46055">
        <ele>1619.478271</ele>
        <time>2012-08-09T10:07:01Z</time>
      </trkpt>
      <trkpt lat="43.01278" lon="-0.46049">
        <ele>1622.842773</ele>
        <time>2012-08-09T10:07:12Z</time>
      </trkpt>
      <trkpt lat="43.01284" lon="-0.46044">
        <ele>1625.726562</ele>
        <time>2012-08-09T10:07:31Z</time>
      </trkpt>
      <trkpt lat="43.01289" lon="-0.4604">
        <ele>1627.64917</ele>
        <time>2012-08-09T10:07:44Z</time>
      </trkpt>
      <trkpt lat="43.01296" lon="-0.46027">
        <ele>1629.091309</ele>
        <time>2012-08-09T10:08:01Z</time>
      </trkpt>
      <trkpt lat="43.01299" lon="-0.4602">
        <ele>1630.533447</ele>
        <time>2012-08-09T10:08:11Z</time>
      </trkpt>
      <trkpt lat="43.01293" lon="-0.46019">
        <ele>1633.417236</ele>
        <time>2012-08-09T10:08:30Z</time>
      </trkpt>
      <trkpt lat="43.01289" lon="-0.46018">
        <ele>1634.378662</ele>
        <time>2012-08-09T10:08:35Z</time>
      </trkpt>
      <trkpt lat="43.01288" lon="-0.46013">
        <ele>1637.262451</ele>
        <time>2012-08-09T10:08:51Z</time>
      </trkpt>
      <trkpt lat="43.01291" lon="-0.4601">
        <ele>1640.626953</ele>
        <time>2012-08-09T10:09:11Z</time>
      </trkpt>
      <trkpt lat="43.01293" lon="-0.46001">
        <ele>1643.510986</ele>
        <time>2012-08-09T10:09:31Z</time>
      </trkpt>
      <trkpt lat="43.01297" lon="-0.45996">
        <ele>1643.991699</ele>
        <time>2012-08-09T10:09:45Z</time>
      </trkpt>
      <trkpt lat="43.01303" lon="-0.45997">
        <ele>1646.395264</ele>
        <time>2012-08-09T10:10:02Z</time>
      </trkpt>
      <trkpt lat="43.01308" lon="-0.45988">
        <ele>1647.837158</ele>
        <time>2012-08-09T10:10:15Z</time>
      </trkpt>
      <trkpt lat="43.01308" lon="-0.45987">
        <ele>1647.837158</ele>
        <time>2012-08-09T10:10:16Z</time>
      </trkpt>
      <trkpt lat="43.01315" lon="-0.4598">
        <ele>1649.279053</ele>
        <time>2012-08-09T10:10:29Z</time>
      </trkpt>
      <trkpt lat="43.0132" lon="-0.45977">
        <ele>1649.759766</ele>
        <time>2012-08-09T10:10:43Z</time>
      </trkpt>
      <trkpt lat="43.01322" lon="-0.45965">
        <ele>1653.60498</ele>
        <time>2012-08-09T10:11:01Z</time>
      </trkpt>
      <trkpt lat="43.01323" lon="-0.45964">
        <ele>1653.60498</ele>
        <time>2012-08-09T10:11:02Z</time>
      </trkpt>
      <trkpt lat="43.01327" lon="-0.45955">
        <ele>1655.527588</ele>
        <time>2012-08-09T10:11:18Z</time>
      </trkpt>
      <trkpt lat="43.0133" lon="-0.45947">
        <ele>1657.930908</ele>
        <time>2012-08-09T10:11:32Z</time>
      </trkpt>
      <trkpt lat="43.01332" lon="-0.45937">
        <ele>1660.814941</ele>
        <time>2012-08-09T10:11:47Z</time>
      </trkpt>
      <trkpt lat="43.01333" lon="-0.45927">
        <ele>1662.256836</ele>
        <time>2012-08-09T10:12:04Z</time>
      </trkpt>
      <trkpt lat="43.01334" lon="-0.45922">
        <ele>1665.140869</ele>
        <time>2012-08-09T10:12:20Z</time>
      </trkpt>
      <trkpt lat="43.01336" lon="-0.45913">
        <ele>1667.063477</ele>
        <time>2012-08-09T10:12:40Z</time>
      </trkpt>
      <trkpt lat="43.01339" lon="-0.4591">
        <ele>1670.427979</ele>
        <time>2012-08-09T10:12:57Z</time>
      </trkpt>
      <trkpt lat="43.01339" lon="-0.4591">
        <ele>1670.427979</ele>
        <time>2012-08-09T10:12:58Z</time>
      </trkpt>
      <trkpt lat="43.01341" lon="-0.45904">
        <ele>1673.79248</ele>
        <time>2012-08-09T10:13:10Z</time>
      </trkpt>
      <trkpt lat="43.01344" lon="-0.45905">
        <ele>1675.234375</ele>
        <time>2012-08-09T10:13:17Z</time>
      </trkpt>
      <trkpt lat="43.01349" lon="-0.45908">
        <ele>1677.157471</ele>
        <time>2012-08-09T10:13:34Z</time>
      </trkpt>
      <trkpt lat="43.01355" lon="-0.45907">
        <ele>1677.637939</ele>
        <time>2012-08-09T10:13:51Z</time>
      </trkpt>
      <trkpt lat="43.01357" lon="-0.45906">
        <ele>1677.637939</ele>
        <time>2012-08-09T10:14:05Z</time>
      </trkpt>
      <trkpt lat="43.01353" lon="-0.45908">
        <ele>1677.157471</ele>
        <time>2012-08-09T10:14:40Z</time>
      </trkpt>
      <trkpt lat="43.01362" lon="-0.45902">
        <ele>1677.637939</ele>
        <time>2012-08-09T10:14:55Z</time>
      </trkpt>
      <trkpt lat="43.01371" lon="-0.45893">
        <ele>1677.157471</ele>
        <time>2012-08-09T10:15:11Z</time>
      </trkpt>
      <trkpt lat="43.01376" lon="-0.45887">
        <ele>1678.118652</ele>
        <time>2012-08-09T10:15:21Z</time>
      </trkpt>
      <trkpt lat="43.01383" lon="-0.45876">
        <ele>1680.04126</ele>
        <time>2012-08-09T10:15:33Z</time>
      </trkpt>
      <trkpt lat="43.01388" lon="-0.45868">
        <ele>1681.963867</ele>
        <time>2012-08-09T10:15:43Z</time>
      </trkpt>
      <trkpt lat="43.01396" lon="-0.45857">
        <ele>1682.44458</ele>
        <time>2012-08-09T10:15:56Z</time>
      </trkpt>
      <trkpt lat="43.01401" lon="-0.45847">
        <ele>1682.44458</ele>
        <time>2012-08-09T10:16:07Z</time>
      </trkpt>
      <trkpt lat="43.01403" lon="-0.45844">
        <ele>1682.925049</ele>
        <time>2012-08-09T10:16:10Z</time>
      </trkpt>
      <trkpt lat="43.01413" lon="-0.45823">
        <ele>1682.44458</ele>
        <time>2012-08-09T10:16:31Z</time>
      </trkpt>
      <trkpt lat="43.01422" lon="-0.45803">
        <ele>1682.925049</ele>
        <time>2012-08-09T10:16:50Z</time>
      </trkpt>
      <trkpt lat="43.01429" lon="-0.4579">
        <ele>1682.925049</ele>
        <time>2012-08-09T10:17:11Z</time>
      </trkpt>
      <trkpt lat="43.0144" lon="-0.45774">
        <ele>1682.925049</ele>
        <time>2012-08-09T10:17:27Z</time>
      </trkpt>
      <trkpt lat="43.01449" lon="-0.45755">
        <ele>1683.886475</ele>
        <time>2012-08-09T10:17:42Z</time>
      </trkpt>
      <trkpt lat="43.01464" lon="-0.45728">
        <ele>1685.809082</ele>
        <time>2012-08-09T10:18:04Z</time>
      </trkpt>
      <trkpt lat="43.01468" lon="-0.45716">
        <ele>1687.731689</ele>
        <time>2012-08-09T10:18:15Z</time>
      </trkpt>
      <trkpt lat="43.01468" lon="-0.45709">
        <ele>1688.693115</ele>
        <time>2012-08-09T10:18:32Z</time>
      </trkpt>
      <trkpt lat="43.01467" lon="-0.45714">
        <ele>1688.212402</ele>
        <time>2012-08-09T10:18:57Z</time>
      </trkpt>
      <trkpt lat="43.01467" lon="-0.45714">
        <ele>1689.654297</ele>
        <time>2012-08-09T10:19:30Z</time>
      </trkpt>
      <trkpt lat="43.01467" lon="-0.45714">
        <ele>1688.212402</ele>
        <time>2012-08-09T10:19:33Z</time>
      </trkpt>
      <trkpt lat="43.0147" lon="-0.45709">
        <ele>1689.173584</ele>
        <time>2012-08-09T10:19:49Z</time>
      </trkpt>
      <trkpt lat="43.0147" lon="-0.4571">
        <ele>1687.731689</ele>
        <time>2012-08-09T10:20:38Z</time>
      </trkpt>
      <trkpt lat="43.01465" lon="-0.45719">
        <ele>1684.8479</ele>
        <time>2012-08-09T10:20:56Z</time>
      </trkpt>
      <trkpt lat="43.01458" lon="-0.45704">
        <ele>1681.963867</ele>
        <time>2012-08-09T10:21:13Z</time>
      </trkpt>
      <trkpt lat="43.01456" lon="-0.45703">
        <ele>1681.483154</ele>
        <time>2012-08-09T10:21:24Z</time>
      </trkpt>
      <trkpt lat="43.01454" lon="-0.45704">
        <ele>1680.521973</ele>
        <time>2012-08-09T10:21:26Z</time>
      </trkpt>
      <trkpt lat="43.01443" lon="-0.4571">
        <ele>1680.521973</ele>
        <time>2012-08-09T10:21:42Z</time>
      </trkpt>
      <trkpt lat="43.01442" lon="-0.4571">
        <ele>1679.560547</ele>
        <time>2012-08-09T10:21:58Z</time>
      </trkpt>
      <trkpt lat="43.01441" lon="-0.4571">
        <ele>1683.405762</ele>
        <time>2012-08-09T10:22:04Z</time>
      </trkpt>
      <trkpt lat="43.01441" lon="-0.4571">
        <ele>1678.118652</ele>
        <time>2012-08-09T10:22:06Z</time>
      </trkpt>
      <trkpt lat="43.01441" lon="-0.4571">
        <ele>1681.002686</ele>
        <time>2012-08-09T10:22:07Z</time>
      </trkpt>
      <trkpt lat="43.0144" lon="-0.4571">
        <ele>1679.560547</ele>
        <time>2012-08-09T10:22:15Z</time>
      </trkpt>
      <trkpt lat="43.0144" lon="-0.4571">
        <ele>1682.925049</ele>
        <time>2012-08-09T10:22:16Z</time>
      </trkpt>
      <trkpt lat="43.0144" lon="-0.4571">
        <ele>1679.560547</ele>
        <time>2012-08-09T10:22:17Z</time>
      </trkpt>
      <trkpt lat="43.0144" lon="-0.4571">
        <ele>1683.405762</ele>
        <time>2012-08-09T10:22:22Z</time>
      </trkpt>
      <trkpt lat="43.0144" lon="-0.4571">
        <ele>1682.925049</ele>
        <time>2012-08-09T10:22:23Z</time>
      </trkpt>
      <trkpt lat="43.01426" lon="-0.45717">
        <ele>1681.963867</ele>
        <time>2012-08-09T10:22:55Z</time>
      </trkpt>
    </trkseg>
  </trk>
  <trk>
    <name><![CDATA[ACTIVE LOG 005]]></name>
    <trkseg>
      <trkpt lat="43.01442" lon="-0.4571">
        <ele>1689.173584</ele>
        <time>2012-08-09T10:28:32Z</time>
      </trkpt>
      <trkpt lat="43.01442" lon="-0.4571">
        <ele>1686.770264</ele>
        <time>2012-08-09T10:28:33Z</time>
      </trkpt>
    </trkseg>
  </trk>
  <trk>
    <name><![CDATA[ACTIVE LOG 006]]></name>
    <trkseg>
      <trkpt lat="43.01239" lon="-0.45692">
        <ele>1685.809082</ele>
        <time>2012-08-09T10:28:34Z</time>
      </trkpt>
      <trkpt lat="43.01236" lon="-0.4569">
        <ele>1685.328369</ele>
        <time>2012-08-09T10:28:35Z</time>
      </trkpt>
      <trkpt lat="43.01238" lon="-0.4569">
        <ele>1686.770264</ele>
        <time>2012-08-09T10:28:38Z</time>
      </trkpt>
      <trkpt lat="43.01236" lon="-0.45691">
        <ele>1687.731689</ele>
        <time>2012-08-09T10:28:40Z</time>
      </trkpt>
      <trkpt lat="43.01235" lon="-0.45691">
        <ele>1690.615479</ele>
        <time>2012-08-09T10:28:43Z</time>
      </trkpt>
      <trkpt lat="43.01234" lon="-0.4569">
        <ele>1694.460938</ele>
        <time>2012-08-09T10:28:51Z</time>
      </trkpt>
      <trkpt lat="43.01231" lon="-0.4569">
        <ele>1697.344971</ele>
        <time>2012-08-09T10:28:56Z</time>
      </trkpt>
      <trkpt lat="43.01231" lon="-0.45692">
        <ele>1698.786865</ele>
        <time>2012-08-09T10:28:59Z</time>
      </trkpt>
      <trkpt lat="43.01228" lon="-0.45695">
        <ele>1702.151367</ele>
        <time>2012-08-09T10:29:05Z</time>
      </trkpt>
      <trkpt lat="43.01224" lon="-0.45692">
        <ele>1705.0354</ele>
        <time>2012-08-09T10:29:13Z</time>
      </trkpt>
      <trkpt lat="43.01221" lon="-0.45694">
        <ele>1707.438721</ele>
        <time>2012-08-09T10:29:16Z</time>
      </trkpt>
      <trkpt lat="43.0122" lon="-0.45696">
        <ele>1708.400146</ele>
        <time>2012-08-09T10:29:20Z</time>
      </trkpt>
      <trkpt lat="43.01216" lon="-0.45698">
        <ele>1711.764893</ele>
        <time>2012-08-09T10:29:27Z</time>
      </trkpt>
      <trkpt lat="43.01213" lon="-0.45698">
        <ele>1715.129395</ele>
        <time>2012-08-09T10:29:34Z</time>
      </trkpt>
      <trkpt lat="43.01212" lon="-0.45697">
        <ele>1715.129395</ele>
        <time>2012-08-09T10:29:35Z</time>
      </trkpt>
      <trkpt lat="43.01208" lon="-0.45698">
        <ele>1718.493896</ele>
        <time>2012-08-09T10:29:44Z</time>
      </trkpt>
      <trkpt lat="43.01205" lon="-0.45698">
        <ele>1720.416504</ele>
        <time>2012-08-09T10:30:04Z</time>
      </trkpt>
      <trkpt lat="43.01204" lon="-0.45698">
        <ele>1721.858398</ele>
        <time>2012-08-09T10:30:26Z</time>
      </trkpt>
      <trkpt lat="43.01204" lon="-0.45698">
        <ele>1721.858398</ele>
        <time>2012-08-09T10:30:59Z</time>
      </trkpt>
      <trkpt lat="43.01203" lon="-0.45698">
        <ele>1721.858398</ele>
        <time>2012-08-09T10:31:51Z</time>
      </trkpt>
      <trkpt lat="43.01202" lon="-0.45698">
        <ele>1721.858398</ele>
        <time>2012-08-09T10:32:03Z</time>
      </trkpt>
      <trkpt lat="43.01201" lon="-0.45699">
        <ele>1721.858398</ele>
        <time>2012-08-09T10:32:30Z</time>
      </trkpt>
      <trkpt lat="43.01197" lon="-0.45704">
        <ele>1721.377686</ele>
        <time>2012-08-09T10:32:54Z</time>
      </trkpt>
      <trkpt lat="43.01188" lon="-0.45711">
        <ele>1721.858398</ele>
        <time>2012-08-09T10:33:09Z</time>
      </trkpt>
      <trkpt lat="43.01187" lon="-0.45712">
        <ele>1722.819824</ele>
        <time>2012-08-09T10:33:11Z</time>
      </trkpt>
      <trkpt lat="43.01186" lon="-0.45715">
        <ele>1723.781006</ele>
        <time>2012-08-09T10:33:15Z</time>
      </trkpt>
      <trkpt lat="43.01179" lon="-0.45722">
        <ele>1726.18457</ele>
        <time>2012-08-09T10:33:32Z</time>
      </trkpt>
    </trkseg>
  </trk>
  <trk>
    <name><![CDATA[ACTIVE LOG 007]]></name>
    <trkseg>
      <trkpt lat="43.01177" lon="-0.45725">
        <ele>1730.029785</ele>
        <time>2012-08-09T10:37:35Z</time>
      </trkpt>
    </trkseg>
  </trk>
  <trk>
    <name><![CDATA[ACTIVE LOG 008]]></name>
    <trkseg>
      <trkpt lat="43.01069" lon="-0.45791">
        <ele>1729.068359</ele>
        <time>2012-08-09T10:37:36Z</time>
      </trkpt>
      <trkpt lat="43.01059" lon="-0.45794">
        <ele>1731.47168</ele>
        <time>2012-08-09T10:37:47Z</time>
      </trkpt>
      <trkpt lat="43.01052" lon="-0.45797">
        <ele>1733.394287</ele>
        <time>2012-08-09T10:38:01Z</time>
      </trkpt>
      <trkpt lat="43.01054" lon="-0.45803">
        <ele>1736.27832</ele>
        <time>2012-08-09T10:38:12Z</time>
      </trkpt>
      <trkpt lat="43.01053" lon="-0.45809">
        <ele>1738.681641</ele>
        <time>2012-08-09T10:38:26Z</time>
      </trkpt>
      <trkpt lat="43.01047" lon="-0.45809">
        <ele>1740.123779</ele>
        <time>2012-08-09T10:38:46Z</time>
      </trkpt>
    </trkseg>
  </trk>
  <trk>
    <name><![CDATA[ACTIVE LOG 009]]></name>
    <trkseg>
      <trkpt lat="43.01048" lon="-0.4581">
        <ele>1896.818359</ele>
        <time>2012-08-09T11:35:24Z</time>
      </trkpt>
      <trkpt lat="43.01048" lon="-0.4581">
        <ele>1892.011963</ele>
        <time>2012-08-09T11:35:25Z</time>
      </trkpt>
    </trkseg>
  </trk>
  <trk>
    <name><![CDATA[ACTIVE LOG 010]]></name>
    <trkseg>
      <trkpt lat="43.00844" lon="-0.4596">
        <ele>1892.492676</ele>
        <time>2012-08-09T11:35:27Z</time>
      </trkpt>
      <trkpt lat="43.00844" lon="-0.45962">
        <ele>1895.857178</ele>
        <time>2012-08-09T11:35:40Z</time>
      </trkpt>
      <trkpt lat="43.00844" lon="-0.45962">
        <ele>1896.818359</ele>
        <time>2012-08-09T11:35:44Z</time>
      </trkpt>
    </trkseg>
  </trk>
  <trk>
    <name><![CDATA[ACTIVE LOG 011]]></name>
    <trkseg>
      <trkpt lat="43.00903" lon="-0.45964">
        <ele>1868.94043</ele>
        <time>2012-08-09T11:44:22Z</time>
      </trkpt>
      <trkpt lat="43.00903" lon="-0.45964">
        <ele>1868.94043</ele>
        <time>2012-08-09T11:44:23Z</time>
      </trkpt>
      <trkpt lat="43.00903" lon="-0.45964">
        <ele>1869.901611</ele>
        <time>2012-08-09T11:44:25Z</time>
      </trkpt>
      <trkpt lat="43.00905" lon="-0.45964">
        <ele>1867.97876</ele>
        <time>2012-08-09T11:44:30Z</time>
      </trkpt>
    </trkseg>
  </trk>
  <trk>
    <name><![CDATA[ACTIVE LOG 012]]></name>
    <trkseg>
      <trkpt lat="43.00905" lon="-0.45963">
        <ele>910.986572</ele>
        <time>2012-08-09T14:02:07Z</time>
      </trkpt>
      <trkpt lat="43.00905" lon="-0.45963">
        <ele>900.892578</ele>
        <time>2012-08-09T14:02:08Z</time>
      </trkpt>
      <trkpt lat="43.00905" lon="-0.45963">
        <ele>900.892578</ele>
        <time>2012-08-09T14:02:17Z</time>
      </trkpt>
    </trkseg>
  </trk>
</gpx>